<?xml version='1.0' encoding='UTF-8'?><gpx version="1.1" creator="JPX - https://github.com/jenetics/jpx" xmlns="http://www.topografix.com/GPX/1/1"><trk><trkseg><trkpt lat="45.6660292" lon="12.227133"><ele>16.0</ele><time>2026-04-02T15:36:36.995Z</time></trkpt><trkpt lat="45.6660816" lon="12.2272025"><ele>15.999999999999998</ele><time>2026-04-02T15:36:41.002Z</time></trkpt><trkpt lat="45.6661276" lon="12.2272983"><ele>16.0</ele><time>2026-04-02T15:36:45.026Z</time></trkpt><trkpt lat="45.6661787" lon="12.2273716"><ele>16.0</ele><time>2026-04-02T15:36:48.981Z</time></trkpt><trkpt lat="45.6662504" lon="12.2273857"><ele>15.999999999999998</ele><time>2026-04-02T15:36:55.095Z</time></trkpt><trkpt lat="45.6663254" lon="12.2273772"><ele>16.0</ele><time>2026-04-02T15:36:59.05Z</time></trkpt><trkpt lat="45.6663538" lon="12.2274748"><ele>16.0</ele><time>2026-04-02T15:37:03.018Z</time></trkpt><trkpt lat="45.6663435" lon="12.2275923"><ele>16.142857142857142</ele><time>2026-04-02T15:37:06.962Z</time></trkpt><trkpt lat="45.6663377" lon="12.2276824"><ele>16.285714285714285</ele><time>2026-04-02T15:37:09.9Z</time></trkpt><trkpt lat="45.6663476" lon="12.2277722"><ele>16.428571428571427</ele><time>2026-04-02T15:37:12.898Z</time></trkpt><trkpt lat="45.6663803" lon="12.2278799"><ele>16.57142857142857</ele><time>2026-04-02T15:37:16.923Z</time></trkpt><trkpt lat="45.666415" lon="12.2279691"><ele>16.714285714285715</ele><time>2026-04-02T15:37:20.986Z</time></trkpt><trkpt lat="45.6664047" lon="12.2280603"><ele>16.857142857142854</ele><time>2026-04-02T15:37:25.083Z</time></trkpt><trkpt lat="45.6664034" lon="12.2281544"><ele>17.0</ele><time>2026-04-02T15:37:29.017Z</time></trkpt><trkpt lat="45.666421" lon="12.2282603"><ele>17.285714285714285</ele><time>2026-04-02T15:37:32.972Z</time></trkpt><trkpt lat="45.6664332" lon="12.228359"><ele>17.57142857142857</ele><time>2026-04-02T15:37:37.048Z</time></trkpt><trkpt lat="45.666435" lon="12.2284558"><ele>17.857142857142854</ele><time>2026-04-02T15:37:41.004Z</time></trkpt><trkpt lat="45.6664324" lon="12.2285502"><ele>18.142857142857142</ele><time>2026-04-02T15:37:45Z</time></trkpt><trkpt lat="45.666435" lon="12.2286465"><ele>18.42857142857143</ele><time>2026-04-02T15:37:49.066Z</time></trkpt><trkpt lat="45.6664439" lon="12.228752"><ele>18.71428571428571</ele><time>2026-04-02T15:37:54.041Z</time></trkpt><trkpt lat="45.6664606" lon="12.2288446"><ele>19.0</ele><time>2026-04-02T15:37:58.025Z</time></trkpt><trkpt lat="45.6664701" lon="12.2289599"><ele>18.857142857142858</ele><time>2026-04-02T15:38:02.142Z</time></trkpt><trkpt lat="45.6664817" lon="12.2290664"><ele>18.714285714285715</ele><time>2026-04-02T15:38:06.056Z</time></trkpt><trkpt lat="45.6664969" lon="12.2291819"><ele>18.571428571428573</ele><time>2026-04-02T15:38:10.012Z</time></trkpt><trkpt lat="45.6665152" lon="12.2292877"><ele>18.42857142857143</ele><time>2026-04-02T15:38:13.967Z</time></trkpt><trkpt lat="45.6665104" lon="12.2293893"><ele>18.285714285714285</ele><time>2026-04-02T15:38:18.085Z</time></trkpt><trkpt lat="45.6665206" lon="12.2294894"><ele>18.142857142857146</ele><time>2026-04-02T15:38:21.981Z</time></trkpt><trkpt lat="45.6665469" lon="12.2295778"><ele>18.0</ele><time>2026-04-02T15:38:24.995Z</time></trkpt><trkpt lat="45.6665726" lon="12.229664"><ele>18.000000000000004</ele><time>2026-04-02T15:38:28.084Z</time></trkpt><trkpt lat="45.6665869" lon="12.2297689"><ele>18.0</ele><time>2026-04-02T15:38:32.068Z</time></trkpt><trkpt lat="45.6666069" lon="12.2298603"><ele>18.0</ele><time>2026-04-02T15:38:36.022Z</time></trkpt><trkpt lat="45.6666218" lon="12.2299591"><ele>18.0</ele><time>2026-04-02T15:38:39.979Z</time></trkpt><trkpt lat="45.6666346" lon="12.2300654"><ele>18.0</ele><time>2026-04-02T15:38:44.055Z</time></trkpt><trkpt lat="45.6666478" lon="12.230163"><ele>18.000000000000004</ele><time>2026-04-02T15:38:48.009Z</time></trkpt><trkpt lat="45.666651" lon="12.2302795"><ele>18.0</ele><time>2026-04-02T15:38:51.966Z</time></trkpt><trkpt lat="45.6666584" lon="12.230377"><ele>17.857142857142858</ele><time>2026-04-02T15:38:55.082Z</time></trkpt><trkpt lat="45.6666645" lon="12.2304847"><ele>17.714285714285715</ele><time>2026-04-02T15:38:59.038Z</time></trkpt><trkpt lat="45.6666727" lon="12.230601"><ele>17.57142857142857</ele><time>2026-04-02T15:39:03.953Z</time></trkpt><trkpt lat="45.6666667" lon="12.2306947"><ele>17.42857142857143</ele><time>2026-04-02T15:39:07.069Z</time></trkpt><trkpt lat="45.6666747" lon="12.2308066"><ele>17.285714285714285</ele><time>2026-04-02T15:39:11.025Z</time></trkpt><trkpt lat="45.6666775" lon="12.2309102"><ele>17.142857142857142</ele><time>2026-04-02T15:39:15.1Z</time></trkpt><trkpt lat="45.6666923" lon="12.2310144"><ele>17.0</ele><time>2026-04-02T15:39:19.055Z</time></trkpt><trkpt lat="45.6666887" lon="12.2311219"><ele>17.142857142857142</ele><time>2026-04-02T15:39:22.924Z</time></trkpt><trkpt lat="45.6666783" lon="12.2312217"><ele>17.285714285714285</ele><time>2026-04-02T15:39:26.008Z</time></trkpt><trkpt lat="45.666673" lon="12.2313305"><ele>17.42857142857143</ele><time>2026-04-02T15:39:29.004Z</time></trkpt><trkpt lat="45.6666776" lon="12.2314205"><ele>17.57142857142857</ele><time>2026-04-02T15:39:32.001Z</time></trkpt><trkpt lat="45.6667192" lon="12.2315163"><ele>17.714285714285715</ele><time>2026-04-02T15:39:37.007Z</time></trkpt><trkpt lat="45.6667454" lon="12.231617"><ele>17.857142857142858</ele><time>2026-04-02T15:39:41.083Z</time></trkpt><trkpt lat="45.6667611" lon="12.23172"><ele>18.0</ele><time>2026-04-02T15:39:44.188Z</time></trkpt><trkpt lat="45.6667811" lon="12.2318063"><ele>18.0</ele><time>2026-04-02T15:39:47.407Z</time></trkpt><trkpt lat="45.6667884" lon="12.2319065"><ele>18.0</ele><time>2026-04-02T15:39:51.481Z</time></trkpt><trkpt lat="45.6667874" lon="12.2320088"><ele>18.0</ele><time>2026-04-02T15:39:55.973Z</time></trkpt><trkpt lat="45.666786" lon="12.2321183"><ele>18.0</ele><time>2026-04-02T15:40:01.007Z</time></trkpt><trkpt lat="45.6667741" lon="12.2322342"><ele>18.0</ele><time>2026-04-02T15:40:05.083Z</time></trkpt><trkpt lat="45.6667695" lon="12.2323366"><ele>18.0</ele><time>2026-04-02T15:40:09.038Z</time></trkpt><trkpt lat="45.6667883" lon="12.2324466"><ele>17.857142857142858</ele><time>2026-04-02T15:40:12.966Z</time></trkpt><trkpt lat="45.6668056" lon="12.2325515"><ele>17.714285714285715</ele><time>2026-04-02T15:40:16.919Z</time></trkpt><trkpt lat="45.6668279" lon="12.2326398"><ele>17.57142857142857</ele><time>2026-04-02T15:40:21.024Z</time></trkpt><trkpt lat="45.6668429" lon="12.2327473"><ele>17.42857142857143</ele><time>2026-04-02T15:40:25.101Z</time></trkpt><trkpt lat="45.6668541" lon="12.2328659"><ele>17.285714285714285</ele><time>2026-04-02T15:40:29.054Z</time></trkpt><trkpt lat="45.6668648" lon="12.232963"><ele>17.142857142857142</ele><time>2026-04-02T15:40:33.009Z</time></trkpt><trkpt lat="45.6668712" lon="12.2330647"><ele>17.0</ele><time>2026-04-02T15:40:37.087Z</time></trkpt><trkpt lat="45.6668783" lon="12.2331543"><ele>16.999999999999996</ele><time>2026-04-02T15:40:41.023Z</time></trkpt><trkpt lat="45.6668871" lon="12.2332495"><ele>17.0</ele><time>2026-04-02T15:40:47.033Z</time></trkpt><trkpt lat="45.6668781" lon="12.2333441"><ele>17.0</ele><time>2026-04-02T15:40:50.988Z</time></trkpt><trkpt lat="45.6668994" lon="12.2334524"><ele>17.0</ele><time>2026-04-02T15:40:55.064Z</time></trkpt><trkpt lat="45.6669132" lon="12.2335405"><ele>17.0</ele><time>2026-04-02T15:40:57.904Z</time></trkpt><trkpt lat="45.6669421" lon="12.2336485"><ele>16.999999999999996</ele><time>2026-04-02T15:41:00.989Z</time></trkpt><trkpt lat="45.6669724" lon="12.2337517"><ele>17.0</ele><time>2026-04-02T15:41:04.086Z</time></trkpt><trkpt lat="45.6669917" lon="12.2338692"><ele>16.857142857142854</ele><time>2026-04-02T15:41:08.008Z</time></trkpt><trkpt lat="45.6669842" lon="12.2339597"><ele>16.714285714285715</ele><time>2026-04-02T15:41:11.005Z</time></trkpt><trkpt lat="45.6669744" lon="12.234073"><ele>16.57142857142857</ele><time>2026-04-02T15:41:15.08Z</time></trkpt><trkpt lat="45.6669978" lon="12.2341787"><ele>16.428571428571427</ele><time>2026-04-02T15:41:19.994Z</time></trkpt><trkpt lat="45.667026" lon="12.2342788"><ele>16.285714285714285</ele><time>2026-04-02T15:41:25.028Z</time></trkpt><trkpt lat="45.6670027" lon="12.2343635"><ele>16.142857142857142</ele><time>2026-04-02T15:41:33.058Z</time></trkpt><trkpt lat="45.6669923" lon="12.2344756"><ele>16.0</ele><time>2026-04-02T15:42:11.052Z</time></trkpt><trkpt lat="45.6670663" lon="12.2345042"><ele>15.999999999999998</ele><time>2026-04-02T15:42:15.966Z</time></trkpt><trkpt lat="45.667133" lon="12.2344667"><ele>16.0</ele><time>2026-04-02T15:42:20.903Z</time></trkpt><trkpt lat="45.6672103" lon="12.2344277"><ele>16.0</ele><time>2026-04-02T15:42:25.075Z</time></trkpt><trkpt lat="45.6672757" lon="12.2344164"><ele>16.0</ele><time>2026-04-02T15:42:28.071Z</time></trkpt><trkpt lat="45.667351" lon="12.2344063"><ele>15.999999999999998</ele><time>2026-04-02T15:42:31.068Z</time></trkpt><trkpt lat="45.6674208" lon="12.2343991"><ele>16.0</ele><time>2026-04-02T15:42:35.023Z</time></trkpt><trkpt lat="45.6675092" lon="12.2344064"><ele>16.0</ele><time>2026-04-02T15:42:40.055Z</time></trkpt><trkpt lat="45.6675873" lon="12.2344096"><ele>15.999999999999998</ele><time>2026-04-02T15:42:43.053Z</time></trkpt><trkpt lat="45.6676608" lon="12.2343976"><ele>16.0</ele><time>2026-04-02T15:42:47.008Z</time></trkpt><trkpt lat="45.6677411" lon="12.2343872"><ele>16.0</ele><time>2026-04-02T15:42:53.001Z</time></trkpt><trkpt lat="45.6678062" lon="12.2343597"><ele>15.999999999999998</ele><time>2026-04-02T15:42:56.209Z</time></trkpt><trkpt lat="45.6678734" lon="12.2343902"><ele>16.0</ele><time>2026-04-02T15:42:59.725Z</time></trkpt><trkpt lat="45.6679515" lon="12.2343844"><ele>16.0</ele><time>2026-04-02T15:43:04.027Z</time></trkpt><trkpt lat="45.6680137" lon="12.23437"><ele>16.142857142857142</ele><time>2026-04-02T15:43:07.023Z</time></trkpt><trkpt lat="45.6679458" lon="12.2344005"><ele>16.285714285714285</ele><time>2026-04-02T15:43:13.987Z</time></trkpt><trkpt lat="45.667899" lon="12.23434"><ele>16.428571428571427</ele><time>2026-04-02T15:43:17.091Z</time></trkpt><trkpt lat="45.6679628" lon="12.2342769"><ele>16.57142857142857</ele><time>2026-04-02T15:43:23.083Z</time></trkpt><trkpt lat="45.6680258" lon="12.234275"><ele>16.714285714285715</ele><time>2026-04-02T15:43:25.921Z</time></trkpt><trkpt lat="45.6681063" lon="12.2342396"><ele>16.857142857142854</ele><time>2026-04-02T15:43:30.035Z</time></trkpt><trkpt lat="45.6681837" lon="12.2342112"><ele>17.0</ele><time>2026-04-02T15:43:34.002Z</time></trkpt><trkpt lat="45.6682475" lon="12.234147"><ele>16.999999999999996</ele><time>2026-04-02T15:43:39.126Z</time></trkpt><trkpt lat="45.6683324" lon="12.2341387"><ele>17.0</ele><time>2026-04-02T15:43:43.381Z</time></trkpt><trkpt lat="45.668401" lon="12.234125"><ele>17.0</ele><time>2026-04-02T15:43:47.053Z</time></trkpt><trkpt lat="45.6684662" lon="12.2340834"><ele>17.0</ele><time>2026-04-02T15:43:52.087Z</time></trkpt><trkpt lat="45.6685303" lon="12.2340715"><ele>17.0</ele><time>2026-04-02T15:43:57Z</time></trkpt><trkpt lat="45.6685939" lon="12.2340454"><ele>16.999999999999996</ele><time>2026-04-02T15:44:01.048Z</time></trkpt><trkpt lat="45.6686608" lon="12.234041"><ele>17.0</ele><time>2026-04-02T15:44:05.031Z</time></trkpt><trkpt lat="45.6687345" lon="12.2340318"><ele>16.999999999999996</ele><time>2026-04-02T15:44:08.986Z</time></trkpt><trkpt lat="45.6687958" lon="12.2340055"><ele>17.0</ele><time>2026-04-02T15:44:10.965Z</time></trkpt><trkpt lat="45.6688741" lon="12.2340239"><ele>17.0</ele><time>2026-04-02T15:44:14.019Z</time></trkpt><trkpt lat="45.6689532" lon="12.2340584"><ele>17.0</ele><time>2026-04-02T15:44:17.016Z</time></trkpt><trkpt lat="45.6690088" lon="12.234101"><ele>17.0</ele><time>2026-04-02T15:44:21.09Z</time></trkpt><trkpt lat="45.6690588" lon="12.2341603"><ele>16.999999999999996</ele><time>2026-04-02T15:44:24.086Z</time></trkpt><trkpt lat="45.6691196" lon="12.2341959"><ele>17.0</ele><time>2026-04-02T15:44:28.041Z</time></trkpt><trkpt lat="45.6691593" lon="12.2342875"><ele>16.999999999999996</ele><time>2026-04-02T15:44:31.038Z</time></trkpt><trkpt lat="45.6691908" lon="12.2343854"><ele>17.0</ele><time>2026-04-02T15:44:35.105Z</time></trkpt><trkpt lat="45.66922" lon="12.2344712"><ele>17.0</ele><time>2026-04-02T15:44:38.8Z</time></trkpt><trkpt lat="45.6692424" lon="12.2345712"><ele>17.0</ele><time>2026-04-02T15:44:42.064Z</time></trkpt><trkpt lat="45.6692572" lon="12.2346703"><ele>17.0</ele><time>2026-04-02T15:44:44.984Z</time></trkpt><trkpt lat="45.6692538" lon="12.2347673"><ele>16.999999999999996</ele><time>2026-04-02T15:44:48.056Z</time></trkpt><trkpt lat="45.6692465" lon="12.2348819"><ele>17.0</ele><time>2026-04-02T15:44:52.011Z</time></trkpt><trkpt lat="45.6692447" lon="12.2349916"><ele>17.57142857142857</ele><time>2026-04-02T15:44:56.128Z</time></trkpt><trkpt lat="45.669241" lon="12.2350919"><ele>18.142857142857142</ele><time>2026-04-02T15:45:00.041Z</time></trkpt><trkpt lat="45.6692417" lon="12.235203"><ele>18.714285714285715</ele><time>2026-04-02T15:45:05.075Z</time></trkpt><trkpt lat="45.6692507" lon="12.2353041"><ele>19.285714285714285</ele><time>2026-04-02T15:45:09.03Z</time></trkpt><trkpt lat="45.6692627" lon="12.2354081"><ele>19.857142857142858</ele><time>2026-04-02T15:45:13.104Z</time></trkpt><trkpt lat="45.6692181" lon="12.235484"><ele>20.428571428571427</ele><time>2026-04-02T15:45:17.059Z</time></trkpt><trkpt lat="45.6691461" lon="12.2355311"><ele>21.0</ele><time>2026-04-02T15:45:21.067Z</time></trkpt><trkpt lat="45.6691103" lon="12.2356295"><ele>20.571428571428573</ele><time>2026-04-02T15:45:25.023Z</time></trkpt><trkpt lat="45.6691162" lon="12.2357238"><ele>20.142857142857142</ele><time>2026-04-02T15:45:29.044Z</time></trkpt><trkpt lat="45.6691328" lon="12.2358263"><ele>19.714285714285715</ele><time>2026-04-02T15:45:33.021Z</time></trkpt><trkpt lat="45.6691092" lon="12.2359367"><ele>19.285714285714285</ele><time>2026-04-02T15:45:38.032Z</time></trkpt><trkpt lat="45.6691204" lon="12.2360254"><ele>18.857142857142858</ele><time>2026-04-02T15:45:41.028Z</time></trkpt><trkpt lat="45.6691468" lon="12.2361306"><ele>18.42857142857143</ele><time>2026-04-02T15:45:44.983Z</time></trkpt><trkpt lat="45.6691447" lon="12.2362289"><ele>18.0</ele><time>2026-04-02T15:45:49.058Z</time></trkpt><trkpt lat="45.6691391" lon="12.2363432"><ele>18.000000000000004</ele><time>2026-04-02T15:45:53.013Z</time></trkpt><trkpt lat="45.6691533" lon="12.2364569"><ele>18.0</ele><time>2026-04-02T15:45:56.968Z</time></trkpt><trkpt lat="45.6691458" lon="12.2365494"><ele>18.0</ele><time>2026-04-02T15:46:00.084Z</time></trkpt><trkpt lat="45.6691334" lon="12.2366453"><ele>18.0</ele><time>2026-04-02T15:46:03.08Z</time></trkpt><trkpt lat="45.6691137" lon="12.2367502"><ele>18.0</ele><time>2026-04-02T15:46:06.987Z</time></trkpt><trkpt lat="45.6691113" lon="12.2368619"><ele>18.000000000000004</ele><time>2026-04-02T15:46:12.021Z</time></trkpt><trkpt lat="45.6691204" lon="12.2369569"><ele>18.0</ele><time>2026-04-02T15:46:16.023Z</time></trkpt><trkpt lat="45.6691183" lon="12.2370676"><ele>18.000000000000004</ele><time>2026-04-02T15:46:19.978Z</time></trkpt><trkpt lat="45.6691136" lon="12.2371634"><ele>18.0</ele><time>2026-04-02T15:46:23.094Z</time></trkpt><trkpt lat="45.6691136" lon="12.2372758"><ele>18.0</ele><time>2026-04-02T15:46:27.049Z</time></trkpt><trkpt lat="45.6691308" lon="12.2373642"><ele>18.0</ele><time>2026-04-02T15:46:31.004Z</time></trkpt><trkpt lat="45.6691504" lon="12.2374573"><ele>18.0</ele><time>2026-04-02T15:46:35.079Z</time></trkpt><trkpt lat="45.6691637" lon="12.2375628"><ele>18.000000000000004</ele><time>2026-04-02T15:46:39.034Z</time></trkpt><trkpt lat="45.6691819" lon="12.237677"><ele>18.0</ele><time>2026-04-02T15:46:42.989Z</time></trkpt><trkpt lat="45.6692048" lon="12.2377815"><ele>18.28571428571429</ele><time>2026-04-02T15:46:47.063Z</time></trkpt><trkpt lat="45.6692094" lon="12.2378747"><ele>18.571428571428573</ele><time>2026-04-02T15:46:51.018Z</time></trkpt><trkpt lat="45.669215" lon="12.2379846"><ele>18.857142857142858</ele><time>2026-04-02T15:46:55.093Z</time></trkpt><trkpt lat="45.6692019" lon="12.2381011"><ele>19.142857142857146</ele><time>2026-04-02T15:46:58.83Z</time></trkpt><trkpt lat="45.669197" lon="12.2382119"><ele>19.42857142857143</ele><time>2026-04-02T15:47:03.003Z</time></trkpt><trkpt lat="45.6691908" lon="12.238318"><ele>19.714285714285715</ele><time>2026-04-02T15:47:06.957Z</time></trkpt><trkpt lat="45.6691806" lon="12.2384207"><ele>20.0</ele><time>2026-04-02T15:47:11.032Z</time></trkpt><trkpt lat="45.6691963" lon="12.2385239"><ele>20.0</ele><time>2026-04-02T15:47:14.987Z</time></trkpt><trkpt lat="45.6692013" lon="12.2386286"><ele>20.0</ele><time>2026-04-02T15:47:18.89Z</time></trkpt><trkpt lat="45.6691987" lon="12.2387389"><ele>20.0</ele><time>2026-04-02T15:47:23.053Z</time></trkpt><trkpt lat="45.6692152" lon="12.2388443"><ele>20.0</ele><time>2026-04-02T15:47:28.05Z</time></trkpt><trkpt lat="45.6692403" lon="12.2389413"><ele>20.0</ele><time>2026-04-02T15:47:32.005Z</time></trkpt><trkpt lat="45.6692494" lon="12.2390599"><ele>20.0</ele><time>2026-04-02T15:47:36.08Z</time></trkpt><trkpt lat="45.6692376" lon="12.2391502"><ele>20.0</ele><time>2026-04-02T15:47:39.084Z</time></trkpt><trkpt lat="45.6692495" lon="12.2392443"><ele>20.0</ele><time>2026-04-02T15:47:43.031Z</time></trkpt><trkpt lat="45.6692867" lon="12.2393349"><ele>20.0</ele><time>2026-04-02T15:47:48.065Z</time></trkpt><trkpt lat="45.66934" lon="12.2394105"><ele>20.0</ele><time>2026-04-02T15:47:54.057Z</time></trkpt><trkpt lat="45.6693423" lon="12.2395018"><ele>20.0</ele><time>2026-04-02T15:47:57.969Z</time></trkpt><trkpt lat="45.6693468" lon="12.2396074"><ele>20.0</ele><time>2026-04-02T15:48:02.087Z</time></trkpt><trkpt lat="45.6694026" lon="12.2396605"><ele>20.0</ele><time>2026-04-02T15:48:04.951Z</time></trkpt><trkpt lat="45.669431" lon="12.2397458"><ele>20.0</ele><time>2026-04-02T15:48:08.079Z</time></trkpt><trkpt lat="45.6694577" lon="12.2398563"><ele>20.0</ele><time>2026-04-02T15:48:12.111Z</time></trkpt><trkpt lat="45.6694808" lon="12.2399728"><ele>20.0</ele><time>2026-04-02T15:48:15.877Z</time></trkpt><trkpt lat="45.6694948" lon="12.2400671"><ele>20.0</ele><time>2026-04-02T15:48:18.985Z</time></trkpt><trkpt lat="45.6694805" lon="12.2401762"><ele>20.0</ele><time>2026-04-02T15:48:23.007Z</time></trkpt><trkpt lat="45.6694481" lon="12.2402665"><ele>20.0</ele><time>2026-04-02T15:48:27.015Z</time></trkpt><trkpt lat="45.6694336" lon="12.2403692"><ele>20.0</ele><time>2026-04-02T15:48:31.09Z</time></trkpt><trkpt lat="45.6694248" lon="12.2404838"><ele>20.0</ele><time>2026-04-02T15:48:35.044Z</time></trkpt><trkpt lat="45.6694191" lon="12.2405903"><ele>20.0</ele><time>2026-04-02T15:48:40.078Z</time></trkpt><trkpt lat="45.6694592" lon="12.2406818"><ele>20.0</ele><time>2026-04-02T15:48:44.033Z</time></trkpt><trkpt lat="45.6695007" lon="12.2407622"><ele>20.0</ele><time>2026-04-02T15:48:48.108Z</time></trkpt><trkpt lat="45.6695259" lon="12.240854"><ele>20.0</ele><time>2026-04-02T15:48:52.062Z</time></trkpt><trkpt lat="45.6695312" lon="12.2409639"><ele>20.0</ele><time>2026-04-02T15:48:56.017Z</time></trkpt><trkpt lat="45.6695474" lon="12.2410779"><ele>20.0</ele><time>2026-04-02T15:49:00.092Z</time></trkpt><trkpt lat="45.6695714" lon="12.2411617"><ele>19.857142857142858</ele><time>2026-04-02T15:49:02.968Z</time></trkpt><trkpt lat="45.6695781" lon="12.2412519"><ele>19.714285714285715</ele><time>2026-04-02T15:49:06.091Z</time></trkpt><trkpt lat="45.669546" lon="12.2413519"><ele>19.57142857142857</ele><time>2026-04-02T15:49:10.039Z</time></trkpt><trkpt lat="45.6695155" lon="12.2414549"><ele>19.42857142857143</ele><time>2026-04-02T15:49:13.994Z</time></trkpt><trkpt lat="45.6694821" lon="12.24154"><ele>19.28571428571429</ele><time>2026-04-02T15:49:17.949Z</time></trkpt><trkpt lat="45.6694341" lon="12.2416247"><ele>19.142857142857142</ele><time>2026-04-02T15:49:22.023Z</time></trkpt><trkpt lat="45.6693805" lon="12.2417188"><ele>19.0</ele><time>2026-04-02T15:49:25.978Z</time></trkpt><trkpt lat="45.6693484" lon="12.2418226"><ele>18.857142857142858</ele><time>2026-04-02T15:49:30.09Z</time></trkpt><trkpt lat="45.6693806" lon="12.2419094"><ele>18.714285714285715</ele><time>2026-04-02T15:49:34.994Z</time></trkpt><trkpt lat="45.6694498" lon="12.2419137"><ele>18.571428571428573</ele><time>2026-04-02T15:49:39.089Z</time></trkpt><trkpt lat="45.6695161" lon="12.2418974"><ele>18.42857142857143</ele><time>2026-04-02T15:49:42.996Z</time></trkpt><trkpt lat="45.6695865" lon="12.2418909"><ele>18.285714285714285</ele><time>2026-04-02T15:49:48.03Z</time></trkpt><trkpt lat="45.6696574" lon="12.2419256"><ele>18.142857142857146</ele><time>2026-04-02T15:49:52.104Z</time></trkpt><trkpt lat="45.6697154" lon="12.2419749"><ele>18.0</ele><time>2026-04-02T15:49:54.981Z</time></trkpt><trkpt lat="45.6697662" lon="12.242044"><ele>18.0</ele><time>2026-04-02T15:49:57.977Z</time></trkpt><trkpt lat="45.6698099" lon="12.2421379"><ele>18.0</ele><time>2026-04-02T15:50:02.051Z</time></trkpt><trkpt lat="45.669812" lon="12.24225"><ele>18.0</ele><time>2026-04-02T15:50:06.006Z</time></trkpt><trkpt lat="45.6698275" lon="12.2423628"><ele>18.0</ele><time>2026-04-02T15:50:10.081Z</time></trkpt><trkpt lat="45.6698298" lon="12.2424706"><ele>18.0</ele><time>2026-04-02T15:50:14.036Z</time></trkpt><trkpt lat="45.6698265" lon="12.2425867"><ele>18.0</ele><time>2026-04-02T15:50:19.069Z</time></trkpt><trkpt lat="45.6698281" lon="12.2426862"><ele>17.666666666666668</ele><time>2026-04-02T15:50:23.024Z</time></trkpt><trkpt lat="45.6698286" lon="12.2427857"><ele>17.333333333333332</ele><time>2026-04-02T15:50:26.979Z</time></trkpt><trkpt lat="45.6698337" lon="12.2428998"><ele>17.0</ele><time>2026-04-02T15:50:31.054Z</time></trkpt><trkpt lat="45.6698461" lon="12.2430106"><ele>16.666666666666664</ele><time>2026-04-02T15:50:34.956Z</time></trkpt><trkpt lat="45.669848" lon="12.2431265"><ele>16.333333333333332</ele><time>2026-04-02T15:50:39.011Z</time></trkpt><trkpt lat="45.6698565" lon="12.2432381"><ele>16.0</ele><time>2026-04-02T15:50:43.038Z</time></trkpt><trkpt lat="45.6698588" lon="12.243348"><ele>16.0</ele><time>2026-04-02T15:50:46.993Z</time></trkpt><trkpt lat="45.6698594" lon="12.2434434"><ele>15.999999999999998</ele><time>2026-04-02T15:50:49.989Z</time></trkpt><trkpt lat="45.6698852" lon="12.2435583"><ele>16.0</ele><time>2026-04-02T15:50:54.064Z</time></trkpt><trkpt lat="45.6698738" lon="12.243652"><ele>16.0</ele><time>2026-04-02T15:50:56.967Z</time></trkpt><trkpt lat="45.6698692" lon="12.243748"><ele>15.999999999999998</ele><time>2026-04-02T15:51:01.014Z</time></trkpt><trkpt lat="45.6698268" lon="12.243833"><ele>16.0</ele><time>2026-04-02T15:51:04.969Z</time></trkpt><trkpt lat="45.6698326" lon="12.2439343"><ele>16.0</ele><time>2026-04-02T15:51:09.044Z</time></trkpt><trkpt lat="45.66986" lon="12.244042"><ele>15.571428571428571</ele><time>2026-04-02T15:51:12.916Z</time></trkpt><trkpt lat="45.669883" lon="12.2441516"><ele>15.142857142857142</ele><time>2026-04-02T15:51:17.074Z</time></trkpt><trkpt lat="45.669886" lon="12.2442596"><ele>14.714285714285714</ele><time>2026-04-02T15:51:21.027Z</time></trkpt><trkpt lat="45.6698757" lon="12.2443646"><ele>14.285714285714285</ele><time>2026-04-02T15:51:24.983Z</time></trkpt><trkpt lat="45.6698776" lon="12.2444618"><ele>13.857142857142858</ele><time>2026-04-02T15:51:28.099Z</time></trkpt><trkpt lat="45.6698665" lon="12.2445687"><ele>13.428571428571427</ele><time>2026-04-02T15:51:32.054Z</time></trkpt><trkpt lat="45.6698689" lon="12.2446747"><ele>13.0</ele><time>2026-04-02T15:51:36.009Z</time></trkpt><trkpt lat="45.6698956" lon="12.2447808"><ele>13.166666666666666</ele><time>2026-04-02T15:51:39.963Z</time></trkpt><trkpt lat="45.6698925" lon="12.2448878"><ele>13.333333333333332</ele><time>2026-04-02T15:51:44.039Z</time></trkpt><trkpt lat="45.6699205" lon="12.2449819"><ele>13.5</ele><time>2026-04-02T15:51:47.993Z</time></trkpt><trkpt lat="45.6699427" lon="12.2450856"><ele>13.666666666666668</ele><time>2026-04-02T15:51:52.068Z</time></trkpt><trkpt lat="45.6699552" lon="12.2451921"><ele>13.833333333333334</ele><time>2026-04-02T15:51:56.023Z</time></trkpt><trkpt lat="45.6699751" lon="12.2453015"><ele>14.0</ele><time>2026-04-02T15:52:00.055Z</time></trkpt><trkpt lat="45.6699703" lon="12.2454085"><ele>14.0</ele><time>2026-04-02T15:52:04.053Z</time></trkpt><trkpt lat="45.6699627" lon="12.2455171"><ele>14.0</ele><time>2026-04-02T15:52:08.008Z</time></trkpt><trkpt lat="45.6699817" lon="12.2456095"><ele>14.0</ele><time>2026-04-02T15:52:12.083Z</time></trkpt><trkpt lat="45.669999" lon="12.2456983"><ele>14.0</ele><time>2026-04-02T15:52:16.038Z</time></trkpt><trkpt lat="45.669998" lon="12.2458095"><ele>14.0</ele><time>2026-04-02T15:52:19.992Z</time></trkpt><trkpt lat="45.6700005" lon="12.2459095"><ele>14.0</ele><time>2026-04-02T15:52:23.947Z</time></trkpt><trkpt lat="45.669987" lon="12.2460196"><ele>14.0</ele><time>2026-04-02T15:52:28.022Z</time></trkpt><trkpt lat="45.6699961" lon="12.2461348"><ele>14.285714285714285</ele><time>2026-04-02T15:52:31.977Z</time></trkpt><trkpt lat="45.6700159" lon="12.2462236"><ele>14.571428571428571</ele><time>2026-04-02T15:52:34.973Z</time></trkpt><trkpt lat="45.6700199" lon="12.2463278"><ele>14.857142857142858</ele><time>2026-04-02T15:52:39.048Z</time></trkpt><trkpt lat="45.6700143" lon="12.2464268"><ele>15.142857142857142</ele><time>2026-04-02T15:52:43.01Z</time></trkpt><trkpt lat="45.670025" lon="12.2465295"><ele>15.428571428571427</ele><time>2026-04-02T15:52:48.094Z</time></trkpt><trkpt lat="45.6700261" lon="12.2466368"><ele>15.714285714285714</ele><time>2026-04-02T15:52:51.991Z</time></trkpt><trkpt lat="45.6700159" lon="12.2467494"><ele>16.0</ele><time>2026-04-02T15:52:56.066Z</time></trkpt><trkpt lat="45.6700219" lon="12.2468598"><ele>16.0</ele><time>2026-04-02T15:53:00.021Z</time></trkpt><trkpt lat="45.6700283" lon="12.2469683"><ele>15.999999999999998</ele><time>2026-04-02T15:53:03.873Z</time></trkpt><trkpt lat="45.6700413" lon="12.2470797"><ele>16.0</ele><time>2026-04-02T15:53:08.051Z</time></trkpt><trkpt lat="45.6700492" lon="12.2471915"><ele>16.0</ele><time>2026-04-02T15:53:12.053Z</time></trkpt><trkpt lat="45.6700512" lon="12.2472921"><ele>15.999999999999998</ele><time>2026-04-02T15:53:15.628Z</time></trkpt><trkpt lat="45.6700582" lon="12.2473847"><ele>16.0</ele><time>2026-04-02T15:53:19.075Z</time></trkpt><trkpt lat="45.6700567" lon="12.2474932"><ele>16.0</ele><time>2026-04-02T15:53:23.031Z</time></trkpt><trkpt lat="45.6700514" lon="12.2476074"><ele>16.166666666666664</ele><time>2026-04-02T15:53:27.053Z</time></trkpt><trkpt lat="45.6700549" lon="12.2477201"><ele>16.333333333333332</ele><time>2026-04-02T15:53:31.061Z</time></trkpt><trkpt lat="45.6700469" lon="12.2478276"><ele>16.5</ele><time>2026-04-02T15:53:35.016Z</time></trkpt><trkpt lat="45.670046" lon="12.2479365"><ele>16.666666666666668</ele><time>2026-04-02T15:53:39.09Z</time></trkpt><trkpt lat="45.6700438" lon="12.2480367"><ele>16.833333333333336</ele><time>2026-04-02T15:53:43.045Z</time></trkpt><trkpt lat="45.6700421" lon="12.248147"><ele>17.0</ele><time>2026-04-02T15:53:47Z</time></trkpt><trkpt lat="45.67004" lon="12.2482555"><ele>16.999999999999996</ele><time>2026-04-02T15:53:50.913Z</time></trkpt><trkpt lat="45.6700414" lon="12.2483657"><ele>17.0</ele><time>2026-04-02T15:53:55.03Z</time></trkpt><trkpt lat="45.6700354" lon="12.2484798"><ele>17.0</ele><time>2026-04-02T15:53:58.932Z</time></trkpt><trkpt lat="45.670007" lon="12.2485641"><ele>17.0</ele><time>2026-04-02T15:54:02.028Z</time></trkpt><trkpt lat="45.6699781" lon="12.2486603"><ele>17.0</ele><time>2026-04-02T15:54:06.113Z</time></trkpt><trkpt lat="45.669986" lon="12.2487592"><ele>16.999999999999996</ele><time>2026-04-02T15:54:10.047Z</time></trkpt><trkpt lat="45.6699759" lon="12.2488483"><ele>17.0</ele><time>2026-04-02T15:54:14.052Z</time></trkpt><trkpt lat="45.6699545" lon="12.2489442"><ele>16.857142857142854</ele><time>2026-04-02T15:54:18.04Z</time></trkpt><trkpt lat="45.6699254" lon="12.24903"><ele>16.714285714285715</ele><time>2026-04-02T15:54:21.994Z</time></trkpt><trkpt lat="45.6698892" lon="12.2491225"><ele>16.57142857142857</ele><time>2026-04-02T15:54:26.069Z</time></trkpt><trkpt lat="45.6698827" lon="12.2492219"><ele>16.428571428571427</ele><time>2026-04-02T15:54:30.024Z</time></trkpt><trkpt lat="45.6698887" lon="12.2493289"><ele>16.285714285714285</ele><time>2026-04-02T15:54:34.099Z</time></trkpt><trkpt lat="45.6698979" lon="12.2494417"><ele>16.142857142857142</ele><time>2026-04-02T15:54:38.053Z</time></trkpt><trkpt lat="45.6699086" lon="12.2495558"><ele>16.0</ele><time>2026-04-02T15:54:42.008Z</time></trkpt><trkpt lat="45.6699196" lon="12.2496693"><ele>16.0</ele><time>2026-04-02T15:54:46.323Z</time></trkpt><trkpt lat="45.6698946" lon="12.2497733"><ele>15.999999999999998</ele><time>2026-04-02T15:54:50.038Z</time></trkpt><trkpt lat="45.6698689" lon="12.2498769"><ele>16.0</ele><time>2026-04-02T15:54:53.993Z</time></trkpt><trkpt lat="45.6698621" lon="12.2499729"><ele>16.0</ele><time>2026-04-02T15:54:58.067Z</time></trkpt><trkpt lat="45.6698729" lon="12.2500617"><ele>15.999999999999998</ele><time>2026-04-02T15:55:01.063Z</time></trkpt><trkpt lat="45.6698903" lon="12.2501545"><ele>16.0</ele><time>2026-04-02T15:55:04.06Z</time></trkpt><trkpt lat="45.669885" lon="12.2502588"><ele>16.0</ele><time>2026-04-02T15:55:07.056Z</time></trkpt><trkpt lat="45.6698515" lon="12.2503381"><ele>15.857142857142856</ele><time>2026-04-02T15:55:10.052Z</time></trkpt><trkpt lat="45.6698962" lon="12.2504144"><ele>15.714285714285712</ele><time>2026-04-02T15:55:14.007Z</time></trkpt><trkpt lat="45.669883" lon="12.2505157"><ele>15.571428571428571</ele><time>2026-04-02T15:55:19.04Z</time></trkpt><trkpt lat="45.6698945" lon="12.2506213"><ele>15.428571428571427</ele><time>2026-04-02T15:55:23.115Z</time></trkpt><trkpt lat="45.6699199" lon="12.2507155"><ele>15.285714285714285</ele><time>2026-04-02T15:55:27.069Z</time></trkpt><trkpt lat="45.6699323" lon="12.2508161"><ele>15.142857142857142</ele><time>2026-04-02T15:55:30.822Z</time></trkpt><trkpt lat="45.6699296" lon="12.2509099"><ele>15.0</ele><time>2026-04-02T15:55:34.118Z</time></trkpt><trkpt lat="45.6699279" lon="12.2510228"><ele>14.857142857142858</ele><time>2026-04-02T15:55:37.976Z</time></trkpt><trkpt lat="45.6699213" lon="12.2511172"><ele>14.714285714285714</ele><time>2026-04-02T15:55:41.092Z</time></trkpt><trkpt lat="45.6699192" lon="12.2512329"><ele>14.571428571428571</ele><time>2026-04-02T15:55:45.047Z</time></trkpt><trkpt lat="45.6699263" lon="12.2513399"><ele>14.428571428571429</ele><time>2026-04-02T15:55:49.001Z</time></trkpt><trkpt lat="45.6699255" lon="12.2514384"><ele>14.285714285714285</ele><time>2026-04-02T15:55:53.076Z</time></trkpt><trkpt lat="45.6699237" lon="12.2515425"><ele>14.142857142857142</ele><time>2026-04-02T15:55:57.03Z</time></trkpt><trkpt lat="45.6699291" lon="12.2516363"><ele>14.0</ele><time>2026-04-02T15:56:00.986Z</time></trkpt><trkpt lat="45.6699396" lon="12.2517415"><ele>14.0</ele><time>2026-04-02T15:56:06.02Z</time></trkpt><trkpt lat="45.6699535" lon="12.2518507"><ele>14.0</ele><time>2026-04-02T15:56:09.942Z</time></trkpt><trkpt lat="45.6699632" lon="12.2519585"><ele>14.0</ele><time>2026-04-02T15:56:14.049Z</time></trkpt><trkpt lat="45.669957" lon="12.2520682"><ele>14.0</ele><time>2026-04-02T15:56:18.124Z</time></trkpt><trkpt lat="45.6699566" lon="12.252162"><ele>14.0</ele><time>2026-04-02T15:56:21.099Z</time></trkpt><trkpt lat="45.6699562" lon="12.2522524"><ele>14.0</ele><time>2026-04-02T15:56:24.153Z</time></trkpt><trkpt lat="45.6699584" lon="12.2523672"><ele>14.0</ele><time>2026-04-02T15:56:29.038Z</time></trkpt><trkpt lat="45.6699588" lon="12.2524696"><ele>14.0</ele><time>2026-04-02T15:56:33.105Z</time></trkpt><trkpt lat="45.6699628" lon="12.2525727"><ele>14.0</ele><time>2026-04-02T15:56:37.06Z</time></trkpt><trkpt lat="45.6699732" lon="12.2526811"><ele>14.0</ele><time>2026-04-02T15:56:41.015Z</time></trkpt><trkpt lat="45.6699808" lon="12.2527779"><ele>14.0</ele><time>2026-04-02T15:56:45.089Z</time></trkpt><trkpt lat="45.6699851" lon="12.2528679"><ele>14.0</ele><time>2026-04-02T15:56:49.044Z</time></trkpt><trkpt lat="45.6699768" lon="12.2529753"><ele>14.0</ele><time>2026-04-02T15:56:52.998Z</time></trkpt><trkpt lat="45.6699764" lon="12.2530908"><ele>14.0</ele><time>2026-04-02T15:56:57.021Z</time></trkpt><trkpt lat="45.6699765" lon="12.2532013"><ele>14.0</ele><time>2026-04-02T15:57:01.029Z</time></trkpt><trkpt lat="45.6699828" lon="12.2532944"><ele>14.0</ele><time>2026-04-02T15:57:04.025Z</time></trkpt><trkpt lat="45.6699863" lon="12.2534034"><ele>14.0</ele><time>2026-04-02T15:57:08.097Z</time></trkpt><trkpt lat="45.6699791" lon="12.2534955"><ele>14.0</ele><time>2026-04-02T15:57:10.954Z</time></trkpt><trkpt lat="45.6699792" lon="12.2535908"><ele>14.0</ele><time>2026-04-02T15:57:14.039Z</time></trkpt><trkpt lat="45.6699985" lon="12.2536935"><ele>14.0</ele><time>2026-04-02T15:57:18.047Z</time></trkpt><trkpt lat="45.6700081" lon="12.2538017"><ele>14.0</ele><time>2026-04-02T15:57:23.08Z</time></trkpt><trkpt lat="45.6700066" lon="12.2539142"><ele>13.833333333333334</ele><time>2026-04-02T15:57:27.994Z</time></trkpt><trkpt lat="45.6699877" lon="12.2540162"><ele>13.666666666666668</ele><time>2026-04-02T15:57:31.949Z</time></trkpt><trkpt lat="45.669963" lon="12.254125"><ele>13.5</ele><time>2026-04-02T15:57:36.042Z</time></trkpt><trkpt lat="45.669919" lon="12.2541957"><ele>13.333333333333332</ele><time>2026-04-02T15:57:39.097Z</time></trkpt><trkpt lat="45.6698577" lon="12.2542749"><ele>13.166666666666666</ele><time>2026-04-02T15:57:42.921Z</time></trkpt><trkpt lat="45.6697872" lon="12.2543167"><ele>13.0</ele><time>2026-04-02T15:57:46.978Z</time></trkpt><trkpt lat="45.669716" lon="12.2543308"><ele>12.999999999999998</ele><time>2026-04-02T15:57:50.033Z</time></trkpt><trkpt lat="45.6696415" lon="12.254366"><ele>13.0</ele><time>2026-04-02T15:57:54.001Z</time></trkpt><trkpt lat="45.6695598" lon="12.2543833"><ele>13.0</ele><time>2026-04-02T15:57:58.075Z</time></trkpt><trkpt lat="45.6694869" lon="12.25439"><ele>13.0</ele><time>2026-04-02T15:58:02.029Z</time></trkpt><trkpt lat="45.6694123" lon="12.2543958"><ele>12.999999999999998</ele><time>2026-04-02T15:58:05.985Z</time></trkpt><trkpt lat="45.6693367" lon="12.2544139"><ele>13.0</ele><time>2026-04-02T15:58:10.06Z</time></trkpt><trkpt lat="45.6692647" lon="12.2544214"><ele>13.428571428571427</ele><time>2026-04-02T15:58:13.942Z</time></trkpt><trkpt lat="45.6691877" lon="12.254419"><ele>13.857142857142858</ele><time>2026-04-02T15:58:18.09Z</time></trkpt><trkpt lat="45.6691171" lon="12.2544288"><ele>14.285714285714285</ele><time>2026-04-02T15:58:22.045Z</time></trkpt><trkpt lat="45.6690574" lon="12.2544922"><ele>14.714285714285714</ele><time>2026-04-02T15:58:25.999Z</time></trkpt><trkpt lat="45.6689846" lon="12.2544895"><ele>15.142857142857142</ele><time>2026-04-02T15:58:30.002Z</time></trkpt><trkpt lat="45.6689101" lon="12.2544879"><ele>15.571428571428571</ele><time>2026-04-02T15:58:34.029Z</time></trkpt><trkpt lat="45.6688344" lon="12.2545115"><ele>16.0</ele><time>2026-04-02T15:58:39.063Z</time></trkpt><trkpt lat="45.6687687" lon="12.2545331"><ele>16.0</ele><time>2026-04-02T15:58:42.915Z</time></trkpt><trkpt lat="45.6686963" lon="12.2545421"><ele>15.999999999999998</ele><time>2026-04-02T15:58:47.078Z</time></trkpt><trkpt lat="45.6686339" lon="12.254556"><ele>16.0</ele><time>2026-04-02T15:58:49.968Z</time></trkpt><trkpt lat="45.6685616" lon="12.254574"><ele>16.0</ele><time>2026-04-02T15:58:53.084Z</time></trkpt><trkpt lat="45.6684942" lon="12.2545874"><ele>15.999999999999998</ele><time>2026-04-02T15:58:57.039Z</time></trkpt><trkpt lat="45.6684268" lon="12.2546375"><ele>16.0</ele><time>2026-04-02T15:59:02.073Z</time></trkpt><trkpt lat="45.6683533" lon="12.2546336"><ele>16.0</ele><time>2026-04-02T15:59:06.028Z</time></trkpt><trkpt lat="45.6682802" lon="12.2546414"><ele>16.0</ele><time>2026-04-02T15:59:09.983Z</time></trkpt><trkpt lat="45.6682036" lon="12.2546705"><ele>15.999999999999998</ele><time>2026-04-02T15:59:15.016Z</time></trkpt><trkpt lat="45.6681339" lon="12.2546736"><ele>16.0</ele><time>2026-04-02T15:59:18.012Z</time></trkpt><trkpt lat="45.6680685" lon="12.2546847"><ele>16.0</ele><time>2026-04-02T15:59:22.077Z</time></trkpt><trkpt lat="45.6680049" lon="12.2546774"><ele>15.999999999999998</ele><time>2026-04-02T15:59:24.9Z</time></trkpt><trkpt lat="45.6679268" lon="12.2547066"><ele>16.0</ele><time>2026-04-02T15:59:28.976Z</time></trkpt><trkpt lat="45.6678507" lon="12.2547414"><ele>16.0</ele><time>2026-04-02T15:59:33.103Z</time></trkpt><trkpt lat="45.6677807" lon="12.2547522"><ele>15.714285714285714</ele><time>2026-04-02T15:59:37.058Z</time></trkpt><trkpt lat="45.6677143" lon="12.254774"><ele>15.428571428571427</ele><time>2026-04-02T15:59:41.013Z</time></trkpt><trkpt lat="45.6676435" lon="12.2547879"><ele>15.142857142857142</ele><time>2026-04-02T15:59:44.967Z</time></trkpt><trkpt lat="45.6675792" lon="12.2547903"><ele>14.857142857142858</ele><time>2026-04-02T15:59:48.083Z</time></trkpt><trkpt lat="45.6675027" lon="12.2548195"><ele>14.571428571428571</ele><time>2026-04-02T15:59:52.038Z</time></trkpt><trkpt lat="45.6674344" lon="12.2548427"><ele>14.285714285714285</ele><time>2026-04-02T15:59:55.993Z</time></trkpt><trkpt lat="45.6673667" lon="12.2548809"><ele>14.0</ele><time>2026-04-02T16:00:00.068Z</time></trkpt><trkpt lat="45.6673017" lon="12.2548989"><ele>13.833333333333334</ele><time>2026-04-02T16:00:04.023Z</time></trkpt><trkpt lat="45.6672231" lon="12.2549108"><ele>13.666666666666668</ele><time>2026-04-02T16:00:07.978Z</time></trkpt><trkpt lat="45.6671392" lon="12.2549176"><ele>13.5</ele><time>2026-04-02T16:00:11.881Z</time></trkpt><trkpt lat="45.6670636" lon="12.2549175"><ele>13.333333333333332</ele><time>2026-04-02T16:00:15.049Z</time></trkpt><trkpt lat="45.6669952" lon="12.2549393"><ele>13.166666666666666</ele><time>2026-04-02T16:00:18.002Z</time></trkpt><trkpt lat="45.6669179" lon="12.2549825"><ele>13.0</ele><time>2026-04-02T16:00:22.076Z</time></trkpt><trkpt lat="45.6668408" lon="12.2550128"><ele>12.999999999999998</ele><time>2026-04-02T16:00:27.033Z</time></trkpt><trkpt lat="45.6667591" lon="12.2550147"><ele>13.0</ele><time>2026-04-02T16:00:30.988Z</time></trkpt><trkpt lat="45.6666766" lon="12.2550257"><ele>13.0</ele><time>2026-04-02T16:00:35.063Z</time></trkpt><trkpt lat="45.6665962" lon="12.2550503"><ele>13.0</ele><time>2026-04-02T16:00:39.017Z</time></trkpt><trkpt lat="45.666531" lon="12.2550606"><ele>12.999999999999998</ele><time>2026-04-02T16:00:41.96Z</time></trkpt><trkpt lat="45.6664592" lon="12.2550526"><ele>13.0</ele><time>2026-04-02T16:00:45.968Z</time></trkpt><trkpt lat="45.6663964" lon="12.2550938"><ele>13.0</ele><time>2026-04-02T16:00:50.043Z</time></trkpt><trkpt lat="45.6663278" lon="12.2551037"><ele>13.0</ele><time>2026-04-02T16:00:53.997Z</time></trkpt><trkpt lat="45.6662572" lon="12.2551339"><ele>13.0</ele><time>2026-04-02T16:00:57.953Z</time></trkpt><trkpt lat="45.6661714" lon="12.2551262"><ele>13.0</ele><time>2026-04-02T16:01:02.027Z</time></trkpt><trkpt lat="45.666099" lon="12.255139"><ele>13.0</ele><time>2026-04-02T16:01:05.024Z</time></trkpt><trkpt lat="45.6660274" lon="12.2551435"><ele>13.0</ele><time>2026-04-02T16:01:08.02Z</time></trkpt><trkpt lat="45.6659545" lon="12.2551499"><ele>13.0</ele><time>2026-04-02T16:01:11.975Z</time></trkpt><trkpt lat="45.6658942" lon="12.2552083"><ele>12.857142857142856</ele><time>2026-04-02T16:01:17.008Z</time></trkpt><trkpt lat="45.6658305" lon="12.2552356"><ele>12.714285714285715</ele><time>2026-04-02T16:01:23Z</time></trkpt><trkpt lat="45.6657572" lon="12.2552437"><ele>12.571428571428571</ele><time>2026-04-02T16:01:26.957Z</time></trkpt><trkpt lat="45.6656937" lon="12.2552613"><ele>12.428571428571427</ele><time>2026-04-02T16:01:29.974Z</time></trkpt><trkpt lat="45.6656263" lon="12.2552349"><ele>12.285714285714285</ele><time>2026-04-02T16:01:33.019Z</time></trkpt><trkpt lat="45.6655618" lon="12.2552579"><ele>12.142857142857142</ele><time>2026-04-02T16:01:36.075Z</time></trkpt><trkpt lat="45.6654902" lon="12.2552821"><ele>12.0</ele><time>2026-04-02T16:01:40.018Z</time></trkpt><trkpt lat="45.6654217" lon="12.2553177"><ele>11.999999999999998</ele><time>2026-04-02T16:01:43.973Z</time></trkpt><trkpt lat="45.6653469" lon="12.2553536"><ele>12.0</ele><time>2026-04-02T16:01:48.048Z</time></trkpt><trkpt lat="45.6652861" lon="12.255378"><ele>12.0</ele><time>2026-04-02T16:01:51.044Z</time></trkpt><trkpt lat="45.665218" lon="12.2553913"><ele>12.0</ele><time>2026-04-02T16:01:54.92Z</time></trkpt><trkpt lat="45.6651547" lon="12.2553956"><ele>12.0</ele><time>2026-04-02T16:01:57.957Z</time></trkpt><trkpt lat="45.6650863" lon="12.2554153"><ele>11.999999999999998</ele><time>2026-04-02T16:02:02.022Z</time></trkpt><trkpt lat="45.6650193" lon="12.2554347"><ele>12.0</ele><time>2026-04-02T16:02:06.025Z</time></trkpt><trkpt lat="45.6649462" lon="12.2554567"><ele>12.142857142857142</ele><time>2026-04-02T16:02:09.98Z</time></trkpt><trkpt lat="45.6648701" lon="12.2554588"><ele>12.285714285714285</ele><time>2026-04-02T16:02:13.935Z</time></trkpt><trkpt lat="45.6648048" lon="12.2554803"><ele>12.428571428571427</ele><time>2026-04-02T16:02:18.009Z</time></trkpt><trkpt lat="45.6647434" lon="12.2555259"><ele>12.571428571428571</ele><time>2026-04-02T16:02:21.964Z</time></trkpt><trkpt lat="45.6646679" lon="12.2555496"><ele>12.714285714285715</ele><time>2026-04-02T16:02:26.001Z</time></trkpt><trkpt lat="45.6645978" lon="12.2555523"><ele>12.857142857142856</ele><time>2026-04-02T16:02:29.037Z</time></trkpt><trkpt lat="45.6645233" lon="12.2555843"><ele>13.0</ele><time>2026-04-02T16:02:32.99Z</time></trkpt><trkpt lat="45.66445" lon="12.2556081"><ele>12.714285714285714</ele><time>2026-04-02T16:02:37.065Z</time></trkpt><trkpt lat="45.6643778" lon="12.2556355"><ele>12.428571428571429</ele><time>2026-04-02T16:02:41.019Z</time></trkpt><trkpt lat="45.6643067" lon="12.2556527"><ele>12.142857142857142</ele><time>2026-04-02T16:02:44.974Z</time></trkpt><trkpt lat="45.664234" lon="12.2556552"><ele>11.857142857142858</ele><time>2026-04-02T16:02:47.97Z</time></trkpt><trkpt lat="45.6641665" lon="12.2556494"><ele>11.571428571428571</ele><time>2026-04-02T16:02:50.966Z</time></trkpt><trkpt lat="45.6640912" lon="12.2556245"><ele>11.285714285714286</ele><time>2026-04-02T16:02:55.041Z</time></trkpt><trkpt lat="45.6640312" lon="12.2555822"><ele>11.0</ele><time>2026-04-02T16:02:58.996Z</time></trkpt><trkpt lat="45.6639841" lon="12.2554958"><ele>11.0</ele><time>2026-04-02T16:03:03.032Z</time></trkpt><trkpt lat="45.6639394" lon="12.2554118"><ele>11.0</ele><time>2026-04-02T16:03:07.026Z</time></trkpt><trkpt lat="45.6639147" lon="12.2553281"><ele>11.0</ele><time>2026-04-02T16:03:11.152Z</time></trkpt><trkpt lat="45.6638981" lon="12.2552183"><ele>11.0</ele><time>2026-04-02T16:03:16.014Z</time></trkpt><trkpt lat="45.6638954" lon="12.2551096"><ele>11.0</ele><time>2026-04-02T16:03:20.089Z</time></trkpt><trkpt lat="45.6638646" lon="12.255009"><ele>11.0</ele><time>2026-04-02T16:03:23.936Z</time></trkpt><trkpt lat="45.6638313" lon="12.2549238"><ele>11.0</ele><time>2026-04-02T16:03:28.14Z</time></trkpt><trkpt lat="45.6637848" lon="12.2549962"><ele>11.0</ele><time>2026-04-02T16:03:57.121Z</time></trkpt><trkpt lat="45.6638169" lon="12.2550895"><ele>11.0</ele><time>2026-04-02T16:04:03.124Z</time></trkpt><trkpt lat="45.6638011" lon="12.2551953"><ele>11.0</ele><time>2026-04-02T16:04:06.109Z</time></trkpt><trkpt lat="45.6638086" lon="12.2553066"><ele>11.0</ele><time>2026-04-02T16:04:10.075Z</time></trkpt><trkpt lat="45.663839" lon="12.2554082"><ele>11.0</ele><time>2026-04-02T16:04:14.08Z</time></trkpt><trkpt lat="45.6638907" lon="12.2554988"><ele>11.0</ele><time>2026-04-02T16:04:18.093Z</time></trkpt><trkpt lat="45.663935" lon="12.255592"><ele>10.714285714285715</ele><time>2026-04-02T16:04:22.048Z</time></trkpt><trkpt lat="45.6639725" lon="12.2556874"><ele>10.428571428571429</ele><time>2026-04-02T16:04:26.114Z</time></trkpt><trkpt lat="45.6640037" lon="12.2557699"><ele>10.142857142857142</ele><time>2026-04-02T16:04:30.078Z</time></trkpt><trkpt lat="45.6640445" lon="12.2558416"><ele>9.857142857142858</ele><time>2026-04-02T16:04:34.032Z</time></trkpt><trkpt lat="45.6640823" lon="12.2559154"><ele>9.571428571428571</ele><time>2026-04-02T16:04:38.107Z</time></trkpt><trkpt lat="45.6641124" lon="12.2560097"><ele>9.285714285714286</ele><time>2026-04-02T16:04:41.815Z</time></trkpt><trkpt lat="45.6641708" lon="12.2560905"><ele>9.0</ele><time>2026-04-02T16:04:47.095Z</time></trkpt><trkpt lat="45.6642159" lon="12.2561627"><ele>9.000000000000002</ele><time>2026-04-02T16:04:51.05Z</time></trkpt><trkpt lat="45.6642596" lon="12.2562314"><ele>9.0</ele><time>2026-04-02T16:04:55.005Z</time></trkpt><trkpt lat="45.6642942" lon="12.2563146"><ele>9.0</ele><time>2026-04-02T16:04:58.001Z</time></trkpt><trkpt lat="45.6643239" lon="12.2563952"><ele>9.0</ele><time>2026-04-02T16:05:00.997Z</time></trkpt><trkpt lat="45.664355" lon="12.2564805"><ele>9.0</ele><time>2026-04-02T16:05:03.993Z</time></trkpt><trkpt lat="45.6643985" lon="12.2565545"><ele>9.000000000000002</ele><time>2026-04-02T16:05:06.803Z</time></trkpt><trkpt lat="45.6644545" lon="12.2566386"><ele>9.0</ele><time>2026-04-02T16:05:11.064Z</time></trkpt><trkpt lat="45.664485" lon="12.2567204"><ele>9.285714285714286</ele><time>2026-04-02T16:05:15.019Z</time></trkpt><trkpt lat="45.6645154" lon="12.2568085"><ele>9.571428571428571</ele><time>2026-04-02T16:05:18.974Z</time></trkpt><trkpt lat="45.664537" lon="12.2569073"><ele>9.857142857142858</ele><time>2026-04-02T16:05:23.048Z</time></trkpt><trkpt lat="45.6645734" lon="12.2569951"><ele>10.142857142857142</ele><time>2026-04-02T16:05:27.003Z</time></trkpt><trkpt lat="45.6646032" lon="12.2570819"><ele>10.428571428571429</ele><time>2026-04-02T16:05:29.999Z</time></trkpt><trkpt lat="45.664638" lon="12.2571913"><ele>10.714285714285715</ele><time>2026-04-02T16:05:34.037Z</time></trkpt><trkpt lat="45.6646664" lon="12.2572911"><ele>11.0</ele><time>2026-04-02T16:05:38.029Z</time></trkpt><trkpt lat="45.6646613" lon="12.2573928"><ele>11.0</ele><time>2026-04-02T16:05:43.062Z</time></trkpt><trkpt lat="45.6646558" lon="12.2574964"><ele>11.0</ele><time>2026-04-02T16:05:48.935Z</time></trkpt><trkpt lat="45.6646455" lon="12.2575943"><ele>11.0</ele><time>2026-04-02T16:05:52.051Z</time></trkpt><trkpt lat="45.664634" lon="12.2577013"><ele>11.0</ele><time>2026-04-02T16:05:55.047Z</time></trkpt><trkpt lat="45.664606" lon="12.2577855"><ele>11.0</ele><time>2026-04-02T16:05:58.043Z</time></trkpt><trkpt lat="45.6645605" lon="12.2578549"><ele>11.0</ele><time>2026-04-02T16:06:01.039Z</time></trkpt><trkpt lat="45.6644997" lon="12.2578968"><ele>11.0</ele><time>2026-04-02T16:06:04.035Z</time></trkpt><trkpt lat="45.6644437" lon="12.2579732"><ele>10.857142857142858</ele><time>2026-04-02T16:06:07.031Z</time></trkpt><trkpt lat="45.6644061" lon="12.2580518"><ele>10.714285714285714</ele><time>2026-04-02T16:06:09.979Z</time></trkpt><trkpt lat="45.6643568" lon="12.2581394"><ele>10.571428571428571</ele><time>2026-04-02T16:06:13.982Z</time></trkpt><trkpt lat="45.6643127" lon="12.2582038"><ele>10.428571428571429</ele><time>2026-04-02T16:06:17.098Z</time></trkpt><trkpt lat="45.6642616" lon="12.2582942"><ele>10.285714285714286</ele><time>2026-04-02T16:06:21.095Z</time></trkpt><trkpt lat="45.6642018" lon="12.2583516"><ele>10.142857142857142</ele><time>2026-04-02T16:06:25.007Z</time></trkpt><trkpt lat="45.6641518" lon="12.2584316"><ele>10.0</ele><time>2026-04-02T16:06:29.082Z</time></trkpt><trkpt lat="45.66411" lon="12.2585033"><ele>10.0</ele><time>2026-04-02T16:06:33.037Z</time></trkpt><trkpt lat="45.6640444" lon="12.2586199"><ele>10.0</ele><time>2026-04-02T16:06:41.067Z</time></trkpt><trkpt lat="45.6640126" lon="12.2586996"><ele>10.0</ele><time>2026-04-02T16:06:45.022Z</time></trkpt><trkpt lat="45.6639614" lon="12.2587691"><ele>10.0</ele><time>2026-04-02T16:06:48.018Z</time></trkpt><trkpt lat="45.6638942" lon="12.2588403"><ele>10.0</ele><time>2026-04-02T16:06:52.092Z</time></trkpt><trkpt lat="45.6638443" lon="12.2589243"><ele>10.0</ele><time>2026-04-02T16:06:56.047Z</time></trkpt><trkpt lat="45.6638094" lon="12.259032"><ele>10.0</ele><time>2026-04-02T16:07:00.002Z</time></trkpt><trkpt lat="45.6637816" lon="12.2591147"><ele>10.0</ele><time>2026-04-02T16:07:03.041Z</time></trkpt><trkpt lat="45.6637394" lon="12.2591946"><ele>10.0</ele><time>2026-04-02T16:07:06.096Z</time></trkpt><trkpt lat="45.6636885" lon="12.2592577"><ele>10.0</ele><time>2026-04-02T16:07:08.99Z</time></trkpt><trkpt lat="45.663625" lon="12.2593381"><ele>10.0</ele><time>2026-04-02T16:07:13.078Z</time></trkpt><trkpt lat="45.6635731" lon="12.2594266"><ele>10.0</ele><time>2026-04-02T16:07:17.02Z</time></trkpt><trkpt lat="45.6635315" lon="12.2595144"><ele>10.0</ele><time>2026-04-02T16:07:20.975Z</time></trkpt><trkpt lat="45.6634772" lon="12.2595946"><ele>9.857142857142858</ele><time>2026-04-02T16:07:26.008Z</time></trkpt><trkpt lat="45.663418" lon="12.2596614"><ele>9.714285714285715</ele><time>2026-04-02T16:07:30.082Z</time></trkpt><trkpt lat="45.6633553" lon="12.2597132"><ele>9.571428571428573</ele><time>2026-04-02T16:07:34.037Z</time></trkpt><trkpt lat="45.663287" lon="12.2597503"><ele>9.428571428571429</ele><time>2026-04-02T16:07:37.992Z</time></trkpt><trkpt lat="45.6632332" lon="12.2598328"><ele>9.285714285714286</ele><time>2026-04-02T16:07:42.067Z</time></trkpt><trkpt lat="45.6631709" lon="12.2598935"><ele>9.142857142857144</ele><time>2026-04-02T16:07:46.022Z</time></trkpt><trkpt lat="45.6631041" lon="12.2599319"><ele>9.0</ele><time>2026-04-02T16:07:50.096Z</time></trkpt><trkpt lat="45.6630409" lon="12.2599936"><ele>9.000000000000002</ele><time>2026-04-02T16:07:54.051Z</time></trkpt><trkpt lat="45.6629752" lon="12.2600291"><ele>9.0</ele><time>2026-04-02T16:07:58.006Z</time></trkpt><trkpt lat="45.6628993" lon="12.2600177"><ele>9.0</ele><time>2026-04-02T16:08:41.011Z</time></trkpt><trkpt lat="45.6628286" lon="12.2600458"><ele>9.0</ele><time>2026-04-02T16:08:44.087Z</time></trkpt><trkpt lat="45.662764" lon="12.2600863"><ele>9.0</ele><time>2026-04-02T16:08:47.022Z</time></trkpt><trkpt lat="45.6627067" lon="12.2601258"><ele>9.000000000000002</ele><time>2026-04-02T16:08:50.018Z</time></trkpt><trkpt lat="45.6626677" lon="12.2602018"><ele>9.0</ele><time>2026-04-02T16:08:53.014Z</time></trkpt><trkpt lat="45.6626242" lon="12.2602722"><ele>9.000000000000002</ele><time>2026-04-02T16:08:56.01Z</time></trkpt><trkpt lat="45.6625753" lon="12.26034"><ele>9.0</ele><time>2026-04-02T16:08:59.007Z</time></trkpt><trkpt lat="45.6625371" lon="12.2604371"><ele>9.0</ele><time>2026-04-02T16:09:02.833Z</time></trkpt><trkpt lat="45.6625239" lon="12.2605443"><ele>9.0</ele><time>2026-04-02T16:09:07.948Z</time></trkpt><trkpt lat="45.662561" lon="12.2606327"><ele>9.0</ele><time>2026-04-02T16:09:12.132Z</time></trkpt><trkpt lat="45.6626197" lon="12.2606992"><ele>9.000000000000002</ele><time>2026-04-02T16:09:15.066Z</time></trkpt><trkpt lat="45.6626719" lon="12.2607578"><ele>9.0</ele><time>2026-04-02T16:09:18.062Z</time></trkpt><trkpt lat="45.6627431" lon="12.2608061"><ele>9.142857142857144</ele><time>2026-04-02T16:09:22.017Z</time></trkpt><trkpt lat="45.6628159" lon="12.2608274"><ele>9.285714285714286</ele><time>2026-04-02T16:09:26.092Z</time></trkpt><trkpt lat="45.6628875" lon="12.260884"><ele>9.428571428571429</ele><time>2026-04-02T16:09:30.048Z</time></trkpt><trkpt lat="45.6629539" lon="12.2609524"><ele>9.571428571428573</ele><time>2026-04-02T16:09:34.001Z</time></trkpt><trkpt lat="45.6630109" lon="12.2610042"><ele>9.714285714285715</ele><time>2026-04-02T16:09:38.076Z</time></trkpt><trkpt lat="45.6630632" lon="12.2610544"><ele>9.857142857142858</ele><time>2026-04-02T16:09:42.031Z</time></trkpt><trkpt lat="45.6631183" lon="12.2611181"><ele>10.0</ele><time>2026-04-02T16:09:46.106Z</time></trkpt><trkpt lat="45.6631519" lon="12.2612074"><ele>10.0</ele><time>2026-04-02T16:09:49.65Z</time></trkpt><trkpt lat="45.6632221" lon="12.2612611"><ele>10.0</ele><time>2026-04-02T16:09:53.728Z</time></trkpt><trkpt lat="45.6632799" lon="12.261346"><ele>10.0</ele><time>2026-04-02T16:09:57.933Z</time></trkpt><trkpt lat="45.6633304" lon="12.2614004"><ele>10.0</ele><time>2026-04-02T16:10:01.086Z</time></trkpt><trkpt lat="45.6633783" lon="12.261481"><ele>10.0</ele><time>2026-04-02T16:10:04.994Z</time></trkpt><trkpt lat="45.6634063" lon="12.2615888"><ele>10.0</ele><time>2026-04-02T16:10:08.996Z</time></trkpt><trkpt lat="45.6634174" lon="12.2616787"><ele>10.0</ele><time>2026-04-02T16:10:12.064Z</time></trkpt><trkpt lat="45.6634061" lon="12.2617964"><ele>10.142857142857142</ele><time>2026-04-02T16:10:16.067Z</time></trkpt><trkpt lat="45.6634121" lon="12.261895"><ele>10.285714285714286</ele><time>2026-04-02T16:10:19.063Z</time></trkpt><trkpt lat="45.6634113" lon="12.2619879"><ele>10.428571428571429</ele><time>2026-04-02T16:10:22.059Z</time></trkpt><trkpt lat="45.6633992" lon="12.262104"><ele>10.571428571428571</ele><time>2026-04-02T16:10:26.014Z</time></trkpt><trkpt lat="45.6633866" lon="12.2621978"><ele>10.714285714285714</ele><time>2026-04-02T16:10:29.01Z</time></trkpt><trkpt lat="45.6633543" lon="12.2623017"><ele>10.857142857142858</ele><time>2026-04-02T16:10:33.127Z</time></trkpt><trkpt lat="45.6633196" lon="12.2623921"><ele>11.0</ele><time>2026-04-02T16:10:38.118Z</time></trkpt><trkpt lat="45.6632963" lon="12.2624825"><ele>11.142857142857142</ele><time>2026-04-02T16:10:42.073Z</time></trkpt><trkpt lat="45.6632745" lon="12.2625898"><ele>11.285714285714285</ele><time>2026-04-02T16:10:46.027Z</time></trkpt><trkpt lat="45.66325" lon="12.2626837"><ele>11.428571428571427</ele><time>2026-04-02T16:10:49.024Z</time></trkpt><trkpt lat="45.6632219" lon="12.2627702"><ele>11.571428571428571</ele><time>2026-04-02T16:10:52.02Z</time></trkpt><trkpt lat="45.6631879" lon="12.2628731"><ele>11.714285714285714</ele><time>2026-04-02T16:10:56.095Z</time></trkpt><trkpt lat="45.6631574" lon="12.262966"><ele>11.857142857142856</ele><time>2026-04-02T16:10:59.872Z</time></trkpt><trkpt lat="45.6631218" lon="12.26307"><ele>12.0</ele><time>2026-04-02T16:11:04.986Z</time></trkpt><trkpt lat="45.6630829" lon="12.2631612"><ele>11.999999999999998</ele><time>2026-04-02T16:11:09.03Z</time></trkpt><trkpt lat="45.663038" lon="12.263232"><ele>12.0</ele><time>2026-04-02T16:11:12.068Z</time></trkpt><trkpt lat="45.6629919" lon="12.2632949"><ele>12.0</ele><time>2026-04-02T16:11:15.072Z</time></trkpt><trkpt lat="45.6629432" lon="12.2633539"><ele>12.0</ele><time>2026-04-02T16:11:18.087Z</time></trkpt><trkpt lat="45.6628823" lon="12.2634275"><ele>12.0</ele><time>2026-04-02T16:11:21.98Z</time></trkpt><trkpt lat="45.6628185" lon="12.2635032"><ele>11.999999999999998</ele><time>2026-04-02T16:11:26.056Z</time></trkpt><trkpt lat="45.662773" lon="12.2635668"><ele>12.0</ele><time>2026-04-02T16:11:29.052Z</time></trkpt><trkpt lat="45.6627168" lon="12.263637"><ele>11.999999999999998</ele><time>2026-04-02T16:11:32.048Z</time></trkpt><trkpt lat="45.662664" lon="12.2636862"><ele>12.0</ele><time>2026-04-02T16:11:35.044Z</time></trkpt><trkpt lat="45.6625941" lon="12.2637349"><ele>12.0</ele><time>2026-04-02T16:11:38.999Z</time></trkpt><trkpt lat="45.6625193" lon="12.2637774"><ele>12.0</ele><time>2026-04-02T16:11:43.073Z</time></trkpt><trkpt lat="45.6624493" lon="12.2638086"><ele>12.0</ele><time>2026-04-02T16:11:46.91Z</time></trkpt><trkpt lat="45.6623816" lon="12.2638506"><ele>11.999999999999998</ele><time>2026-04-02T16:11:50.945Z</time></trkpt><trkpt lat="45.6623082" lon="12.2638886"><ele>12.0</ele><time>2026-04-02T16:11:54.991Z</time></trkpt><trkpt lat="45.6622426" lon="12.2639424"><ele>11.857142857142856</ele><time>2026-04-02T16:11:58.964Z</time></trkpt><trkpt lat="45.662178" lon="12.2639912"><ele>11.714285714285714</ele><time>2026-04-02T16:12:01.971Z</time></trkpt><trkpt lat="45.6621014" lon="12.2640259"><ele>11.571428571428571</ele><time>2026-04-02T16:12:06.073Z</time></trkpt><trkpt lat="45.6620348" lon="12.2640654"><ele>11.428571428571427</ele><time>2026-04-02T16:12:10.028Z</time></trkpt><trkpt lat="45.6619671" lon="12.2641071"><ele>11.285714285714285</ele><time>2026-04-02T16:12:13.983Z</time></trkpt><trkpt lat="45.6619017" lon="12.2641424"><ele>11.142857142857142</ele><time>2026-04-02T16:12:18.131Z</time></trkpt><trkpt lat="45.6618488" lon="12.2641928"><ele>11.0</ele><time>2026-04-02T16:12:22.012Z</time></trkpt><trkpt lat="45.661783" lon="12.2642184"><ele>11.0</ele><time>2026-04-02T16:12:26.087Z</time></trkpt><trkpt lat="45.6617034" lon="12.2642209"><ele>11.0</ele><time>2026-04-02T16:12:30.042Z</time></trkpt><trkpt lat="45.6616418" lon="12.2642505"><ele>11.0</ele><time>2026-04-02T16:12:33.038Z</time></trkpt><trkpt lat="45.6615772" lon="12.2642941"><ele>11.0</ele><time>2026-04-02T16:12:35.946Z</time></trkpt><trkpt lat="45.661507" lon="12.2643206"><ele>11.0</ele><time>2026-04-02T16:12:40.051Z</time></trkpt><trkpt lat="45.6614464" lon="12.264362"><ele>11.0</ele><time>2026-04-02T16:12:44.063Z</time></trkpt><trkpt lat="45.6613912" lon="12.2644344"><ele>11.0</ele><time>2026-04-02T16:12:48.018Z</time></trkpt><trkpt lat="45.6613643" lon="12.2645163"><ele>11.0</ele><time>2026-04-02T16:12:52.093Z</time></trkpt><trkpt lat="45.6613513" lon="12.2646197"><ele>11.0</ele><time>2026-04-02T16:12:57.006Z</time></trkpt><trkpt lat="45.6613252" lon="12.2647111"><ele>11.0</ele><time>2026-04-02T16:13:01.081Z</time></trkpt><trkpt lat="45.6612887" lon="12.2647966"><ele>11.0</ele><time>2026-04-02T16:13:05.035Z</time></trkpt><trkpt lat="45.6612545" lon="12.2649041"><ele>11.0</ele><time>2026-04-02T16:13:08.973Z</time></trkpt><trkpt lat="45.6612222" lon="12.2650032"><ele>11.0</ele><time>2026-04-02T16:13:13.066Z</time></trkpt><trkpt lat="45.6612005" lon="12.2650943"><ele>11.0</ele><time>2026-04-02T16:13:17.02Z</time></trkpt><trkpt lat="45.6612168" lon="12.2651929"><ele>10.857142857142858</ele><time>2026-04-02T16:13:21.093Z</time></trkpt><trkpt lat="45.6612724" lon="12.2652361"><ele>10.714285714285714</ele><time>2026-04-02T16:13:25.049Z</time></trkpt><trkpt lat="45.6613154" lon="12.2653206"><ele>10.571428571428571</ele><time>2026-04-02T16:13:28.967Z</time></trkpt><trkpt lat="45.661376" lon="12.2653938"><ele>10.428571428571429</ele><time>2026-04-02T16:13:33.09Z</time></trkpt><trkpt lat="45.6614414" lon="12.2654596"><ele>10.285714285714286</ele><time>2026-04-02T16:13:37.033Z</time></trkpt><trkpt lat="45.6614989" lon="12.2654998"><ele>10.142857142857142</ele><time>2026-04-02T16:13:40.988Z</time></trkpt><trkpt lat="45.6615668" lon="12.265553"><ele>10.0</ele><time>2026-04-02T16:13:46.021Z</time></trkpt><trkpt lat="45.6616467" lon="12.2656021"><ele>10.142857142857142</ele><time>2026-04-02T16:13:50.096Z</time></trkpt><trkpt lat="45.6617148" lon="12.265659"><ele>10.285714285714286</ele><time>2026-04-02T16:13:54.051Z</time></trkpt><trkpt lat="45.6617798" lon="12.2656909"><ele>10.428571428571429</ele><time>2026-04-02T16:13:58.005Z</time></trkpt><trkpt lat="45.6618485" lon="12.2657343"><ele>10.571428571428571</ele><time>2026-04-02T16:14:02.08Z</time></trkpt><trkpt lat="45.6619187" lon="12.2657721"><ele>10.714285714285714</ele><time>2026-04-02T16:14:07.113Z</time></trkpt><trkpt lat="45.6619872" lon="12.2658033"><ele>10.857142857142858</ele><time>2026-04-02T16:14:10.989Z</time></trkpt><trkpt lat="45.6620449" lon="12.2658537"><ele>11.0</ele><time>2026-04-02T16:14:14.087Z</time></trkpt><trkpt lat="45.6621161" lon="12.2659027"><ele>11.0</ele><time>2026-04-02T16:14:18.011Z</time></trkpt><trkpt lat="45.6621747" lon="12.2659421"><ele>11.0</ele><time>2026-04-02T16:14:22.093Z</time></trkpt><trkpt lat="45.6622342" lon="12.2660113"><ele>11.0</ele><time>2026-04-02T16:14:26.071Z</time></trkpt><trkpt lat="45.662296" lon="12.266072"><ele>11.0</ele><time>2026-04-02T16:14:30.003Z</time></trkpt><trkpt lat="45.6623501" lon="12.2661222"><ele>11.0</ele><time>2026-04-02T16:14:33.119Z</time></trkpt><trkpt lat="45.6624267" lon="12.2661442"><ele>11.0</ele><time>2026-04-02T16:14:37.073Z</time></trkpt><trkpt lat="45.6624977" lon="12.266167"><ele>11.0</ele><time>2026-04-02T16:14:42.107Z</time></trkpt><trkpt lat="45.6625648" lon="12.2661845"><ele>11.0</ele><time>2026-04-02T16:14:46.133Z</time></trkpt><trkpt lat="45.6626302" lon="12.2662028"><ele>11.0</ele><time>2026-04-02T16:14:49.57Z</time></trkpt><trkpt lat="45.6626925" lon="12.2662574"><ele>11.0</ele><time>2026-04-02T16:14:53.122Z</time></trkpt><trkpt lat="45.662741" lon="12.2663377"><ele>11.0</ele><time>2026-04-02T16:14:57.077Z</time></trkpt><trkpt lat="45.662721" lon="12.2664399"><ele>11.0</ele><time>2026-04-02T16:15:01.99Z</time></trkpt><trkpt lat="45.6627076" lon="12.266542"><ele>11.0</ele><time>2026-04-02T16:15:06.027Z</time></trkpt><trkpt lat="45.66269" lon="12.2666458"><ele>11.0</ele><time>2026-04-02T16:15:10.02Z</time></trkpt><trkpt lat="45.6626728" lon="12.2667559"><ele>10.833333333333332</ele><time>2026-04-02T16:15:14.094Z</time></trkpt><trkpt lat="45.6626421" lon="12.2668608"><ele>10.666666666666666</ele><time>2026-04-02T16:15:18.049Z</time></trkpt><trkpt lat="45.6625965" lon="12.2669486"><ele>10.5</ele><time>2026-04-02T16:15:22.066Z</time></trkpt><trkpt lat="45.662555" lon="12.2670397"><ele>10.333333333333334</ele><time>2026-04-02T16:15:26.078Z</time></trkpt><trkpt lat="45.6625362" lon="12.2671416"><ele>10.166666666666668</ele><time>2026-04-02T16:15:30.033Z</time></trkpt><trkpt lat="45.6625183" lon="12.2672507"><ele>10.0</ele><time>2026-04-02T16:15:34.108Z</time></trkpt><trkpt lat="45.6624955" lon="12.2673407"><ele>10.0</ele><time>2026-04-02T16:15:37.944Z</time></trkpt><trkpt lat="45.6624698" lon="12.267441"><ele>10.0</ele><time>2026-04-02T16:15:42.03Z</time></trkpt><trkpt lat="45.6624296" lon="12.2675315"><ele>10.0</ele><time>2026-04-02T16:15:46.092Z</time></trkpt><trkpt lat="45.6624013" lon="12.2676121"><ele>10.0</ele><time>2026-04-02T16:15:49.088Z</time></trkpt><trkpt lat="45.6623734" lon="12.2676948"><ele>10.0</ele><time>2026-04-02T16:15:52.084Z</time></trkpt><trkpt lat="45.6623388" lon="12.2677849"><ele>10.0</ele><time>2026-04-02T16:15:56.039Z</time></trkpt><trkpt lat="45.6623068" lon="12.2678872"><ele>10.0</ele><time>2026-04-02T16:15:59.993Z</time></trkpt><trkpt lat="45.6622895" lon="12.2679923"><ele>10.0</ele><time>2026-04-02T16:16:05.027Z</time></trkpt><trkpt lat="45.6622647" lon="12.2680916"><ele>10.0</ele><time>2026-04-02T16:16:09.101Z</time></trkpt><trkpt lat="45.6622256" lon="12.2681902"><ele>10.0</ele><time>2026-04-02T16:16:13.056Z</time></trkpt><trkpt lat="45.6621873" lon="12.268278"><ele>10.0</ele><time>2026-04-02T16:16:17.033Z</time></trkpt><trkpt lat="45.6621744" lon="12.2683713"><ele>10.0</ele><time>2026-04-02T16:16:22.044Z</time></trkpt><trkpt lat="45.6622327" lon="12.268445"><ele>10.0</ele><time>2026-04-02T16:16:27.077Z</time></trkpt><trkpt lat="45.6622653" lon="12.2685468"><ele>10.0</ele><time>2026-04-02T16:16:31.032Z</time></trkpt><trkpt lat="45.66228" lon="12.2686423"><ele>9.833333333333334</ele><time>2026-04-02T16:16:34.028Z</time></trkpt><trkpt lat="45.6623165" lon="12.2687391"><ele>9.666666666666668</ele><time>2026-04-02T16:16:38.084Z</time></trkpt><trkpt lat="45.662323" lon="12.2688378"><ele>9.5</ele><time>2026-04-02T16:16:43.016Z</time></trkpt><trkpt lat="45.6623129" lon="12.2689568"><ele>9.333333333333334</ele><time>2026-04-02T16:16:47.073Z</time></trkpt><trkpt lat="45.6623139" lon="12.2690774"><ele>9.166666666666666</ele><time>2026-04-02T16:16:51.046Z</time></trkpt><trkpt lat="45.6622966" lon="12.2691904"><ele>9.0</ele><time>2026-04-02T16:16:55.001Z</time></trkpt><trkpt lat="45.6622727" lon="12.2692834"><ele>8.833333333333334</ele><time>2026-04-02T16:16:59.075Z</time></trkpt><trkpt lat="45.6622135" lon="12.2693284"><ele>8.666666666666666</ele><time>2026-04-02T16:17:03.03Z</time></trkpt><trkpt lat="45.6622812" lon="12.2692695"><ele>8.5</ele><time>2026-04-02T16:17:38.024Z</time></trkpt><trkpt lat="45.6623037" lon="12.2691808"><ele>8.333333333333332</ele><time>2026-04-02T16:17:45.934Z</time></trkpt><trkpt lat="45.662254" lon="12.2691226"><ele>8.166666666666666</ele><time>2026-04-02T16:17:55.042Z</time></trkpt><trkpt lat="45.6623259" lon="12.2691964"><ele>8.0</ele><time>2026-04-02T16:18:19.97Z</time></trkpt><trkpt lat="45.6624159" lon="12.2692121"><ele>8.0</ele><time>2026-04-02T16:18:45.977Z</time></trkpt><trkpt lat="45.6624004" lon="12.2693013"><ele>7.999999999999999</ele><time>2026-04-02T16:20:06.985Z</time></trkpt><trkpt lat="45.6623579" lon="12.2693815"><ele>8.0</ele><time>2026-04-02T16:20:38.027Z</time></trkpt><trkpt lat="45.662297" lon="12.2693215"><ele>8.0</ele><time>2026-04-02T16:20:43.061Z</time></trkpt><trkpt lat="45.6622761" lon="12.2692363"><ele>7.999999999999999</ele><time>2026-04-02T16:20:45.099Z</time></trkpt><trkpt lat="45.6622764" lon="12.2691266"><ele>8.0</ele><time>2026-04-02T16:20:48.094Z</time></trkpt><trkpt lat="45.6622886" lon="12.2690163"><ele>8.0</ele><time>2026-04-02T16:20:52.049Z</time></trkpt><trkpt lat="45.662298" lon="12.2689266"><ele>8.142857142857142</ele><time>2026-04-02T16:20:56.005Z</time></trkpt><trkpt lat="45.6623049" lon="12.2688299"><ele>8.285714285714285</ele><time>2026-04-02T16:21:00.08Z</time></trkpt><trkpt lat="45.662314" lon="12.2687255"><ele>8.428571428571429</ele><time>2026-04-02T16:21:04.047Z</time></trkpt><trkpt lat="45.6623415" lon="12.268619"><ele>8.571428571428571</ele><time>2026-04-02T16:21:08.11Z</time></trkpt><trkpt lat="45.6623495" lon="12.2685296"><ele>8.714285714285715</ele><time>2026-04-02T16:21:11.106Z</time></trkpt><trkpt lat="45.6623193" lon="12.2684407"><ele>8.857142857142858</ele><time>2026-04-02T16:21:15.061Z</time></trkpt><trkpt lat="45.6622729" lon="12.2683669"><ele>9.0</ele><time>2026-04-02T16:21:19.016Z</time></trkpt><trkpt lat="45.6622415" lon="12.2682713"><ele>9.000000000000002</ele><time>2026-04-02T16:21:24.04Z</time></trkpt><trkpt lat="45.6622454" lon="12.2681783"><ele>9.0</ele><time>2026-04-02T16:21:28.115Z</time></trkpt><trkpt lat="45.6621882" lon="12.2682509"><ele>9.0</ele><time>2026-04-02T16:21:35.066Z</time></trkpt><trkpt lat="45.6621494" lon="12.2683599"><ele>9.0</ele><time>2026-04-02T16:21:40.1Z</time></trkpt><trkpt lat="45.6620882" lon="12.2684048"><ele>9.0</ele><time>2026-04-02T16:21:43.096Z</time></trkpt><trkpt lat="45.6620238" lon="12.2684012"><ele>9.000000000000002</ele><time>2026-04-02T16:21:46.092Z</time></trkpt><trkpt lat="45.661944" lon="12.268358"><ele>9.0</ele><time>2026-04-02T16:21:49.959Z</time></trkpt><trkpt lat="45.6618878" lon="12.2682863"><ele>9.142857142857144</ele><time>2026-04-02T16:21:53.005Z</time></trkpt><trkpt lat="45.6618364" lon="12.2682336"><ele>9.285714285714286</ele><time>2026-04-02T16:21:56.081Z</time></trkpt><trkpt lat="45.6617695" lon="12.2681837"><ele>9.428571428571429</ele><time>2026-04-02T16:22:00.115Z</time></trkpt><trkpt lat="45.6616966" lon="12.2681347"><ele>9.571428571428573</ele><time>2026-04-02T16:22:04.102Z</time></trkpt><trkpt lat="45.6616317" lon="12.268081"><ele>9.714285714285715</ele><time>2026-04-02T16:22:08.025Z</time></trkpt><trkpt lat="45.6615851" lon="12.2680051"><ele>9.857142857142858</ele><time>2026-04-02T16:22:12.102Z</time></trkpt><trkpt lat="45.6615162" lon="12.2679463"><ele>10.0</ele><time>2026-04-02T16:22:18.092Z</time></trkpt><trkpt lat="45.6614511" lon="12.2679068"><ele>10.142857142857142</ele><time>2026-04-02T16:22:22.047Z</time></trkpt><trkpt lat="45.6613802" lon="12.2678717"><ele>10.285714285714286</ele><time>2026-04-02T16:22:25.965Z</time></trkpt><trkpt lat="45.6613147" lon="12.2678549"><ele>10.428571428571429</ele><time>2026-04-02T16:22:29.06Z</time></trkpt><trkpt lat="45.6612472" lon="12.2678531"><ele>10.571428571428571</ele><time>2026-04-02T16:22:33.073Z</time></trkpt><trkpt lat="45.6611744" lon="12.2678848"><ele>10.714285714285714</ele><time>2026-04-02T16:22:37.028Z</time></trkpt><trkpt lat="45.6611173" lon="12.2679433"><ele>10.857142857142858</ele><time>2026-04-02T16:22:40.007Z</time></trkpt><trkpt lat="45.6610519" lon="12.2679968"><ele>11.0</ele><time>2026-04-02T16:22:44.099Z</time></trkpt><trkpt lat="45.6609928" lon="12.2680488"><ele>11.0</ele><time>2026-04-02T16:22:48.054Z</time></trkpt><trkpt lat="45.6609165" lon="12.2680669"><ele>11.0</ele><time>2026-04-02T16:22:53.088Z</time></trkpt><trkpt lat="45.6608377" lon="12.2680622"><ele>11.0</ele><time>2026-04-02T16:22:57.043Z</time></trkpt><trkpt lat="45.6607715" lon="12.2679803"><ele>11.0</ele><time>2026-04-02T16:23:00.96Z</time></trkpt><trkpt lat="45.6607152" lon="12.2679238"><ele>11.0</ele><time>2026-04-02T16:23:05.045Z</time></trkpt><trkpt lat="45.6606556" lon="12.2679776"><ele>11.0</ele><time>2026-04-02T16:23:10.106Z</time></trkpt><trkpt lat="45.6606189" lon="12.268063"><ele>10.857142857142858</ele><time>2026-04-02T16:23:13.102Z</time></trkpt><trkpt lat="45.6605788" lon="12.2681532"><ele>10.714285714285714</ele><time>2026-04-02T16:23:16.099Z</time></trkpt><trkpt lat="45.6605298" lon="12.2682113"><ele>10.571428571428571</ele><time>2026-04-02T16:23:18.928Z</time></trkpt><trkpt lat="45.6604779" lon="12.2682832"><ele>10.428571428571429</ele><time>2026-04-02T16:23:23.021Z</time></trkpt><trkpt lat="45.6604524" lon="12.2683813"><ele>10.285714285714286</ele><time>2026-04-02T16:23:28.085Z</time></trkpt><trkpt lat="45.6604041" lon="12.2684749"><ele>10.142857142857142</ele><time>2026-04-02T16:23:33.259Z</time></trkpt><trkpt lat="45.6603506" lon="12.2685517"><ele>10.0</ele><time>2026-04-02T16:23:37.304Z</time></trkpt><trkpt lat="45.6603072" lon="12.2686198"><ele>9.833333333333334</ele><time>2026-04-02T16:23:40.38Z</time></trkpt><trkpt lat="45.6602445" lon="12.2686839"><ele>9.666666666666668</ele><time>2026-04-02T16:23:43.386Z</time></trkpt><trkpt lat="45.6602125" lon="12.2687928"><ele>9.5</ele><time>2026-04-02T16:23:47.479Z</time></trkpt><trkpt lat="45.6601666" lon="12.2688882"><ele>9.333333333333334</ele><time>2026-04-02T16:23:51.566Z</time></trkpt><trkpt lat="45.6601281" lon="12.2689801"><ele>9.166666666666666</ele><time>2026-04-02T16:23:56.06Z</time></trkpt><trkpt lat="45.6600918" lon="12.2690603"><ele>9.0</ele><time>2026-04-02T16:24:00.082Z</time></trkpt><trkpt lat="45.660048" lon="12.2691477"><ele>9.0</ele><time>2026-04-02T16:24:04.036Z</time></trkpt><trkpt lat="45.6599752" lon="12.2692042"><ele>9.0</ele><time>2026-04-02T16:24:07.943Z</time></trkpt><trkpt lat="45.6599163" lon="12.2692684"><ele>9.0</ele><time>2026-04-02T16:24:12.067Z</time></trkpt><trkpt lat="45.6598478" lon="12.2692935"><ele>9.0</ele><time>2026-04-02T16:24:16.98Z</time></trkpt><trkpt lat="45.659801" lon="12.2692006"><ele>9.0</ele><time>2026-04-02T16:24:21.047Z</time></trkpt><trkpt lat="45.659733" lon="12.2691297"><ele>9.0</ele><time>2026-04-02T16:24:25.13Z</time></trkpt><trkpt lat="45.6596784" lon="12.2690697"><ele>9.000000000000002</ele><time>2026-04-02T16:24:29.085Z</time></trkpt><trkpt lat="45.6596211" lon="12.2690131"><ele>9.0</ele><time>2026-04-02T16:24:33.04Z</time></trkpt><trkpt lat="45.6595594" lon="12.2689937"><ele>9.0</ele><time>2026-04-02T16:24:37.114Z</time></trkpt><trkpt lat="45.6594958" lon="12.2689879"><ele>9.0</ele><time>2026-04-02T16:24:41.069Z</time></trkpt><trkpt lat="45.6594161" lon="12.268962"><ele>9.0</ele><time>2026-04-02T16:24:45.067Z</time></trkpt><trkpt lat="45.6593427" lon="12.2689395"><ele>9.000000000000002</ele><time>2026-04-02T16:24:49.099Z</time></trkpt><trkpt lat="45.6592695" lon="12.268927"><ele>9.0</ele><time>2026-04-02T16:24:53.054Z</time></trkpt><trkpt lat="45.6591877" lon="12.2689449"><ele>8.714285714285715</ele><time>2026-04-02T16:24:57.021Z</time></trkpt><trkpt lat="45.659113" lon="12.2689743"><ele>8.428571428571429</ele><time>2026-04-02T16:25:01.083Z</time></trkpt><trkpt lat="45.6590412" lon="12.2689709"><ele>8.142857142857142</ele><time>2026-04-02T16:25:05.038Z</time></trkpt><trkpt lat="45.6589672" lon="12.2689706"><ele>7.857142857142858</ele><time>2026-04-02T16:25:10.072Z</time></trkpt><trkpt lat="45.6588969" lon="12.2689728"><ele>7.571428571428571</ele><time>2026-04-02T16:25:14.027Z</time></trkpt><trkpt lat="45.6588192" lon="12.2689526"><ele>7.285714285714286</ele><time>2026-04-02T16:25:18.101Z</time></trkpt><trkpt lat="45.6587548" lon="12.268915"><ele>7.0</ele><time>2026-04-02T16:25:21.098Z</time></trkpt><trkpt lat="45.6586878" lon="12.2688593"><ele>7.000000000000001</ele><time>2026-04-02T16:25:24.108Z</time></trkpt><trkpt lat="45.6586268" lon="12.2687896"><ele>7.0</ele><time>2026-04-02T16:25:27.141Z</time></trkpt><trkpt lat="45.6585734" lon="12.2687135"><ele>7.0</ele><time>2026-04-02T16:25:31.045Z</time></trkpt><trkpt lat="45.6585174" lon="12.2686354"><ele>7.0</ele><time>2026-04-02T16:25:35.118Z</time></trkpt><trkpt lat="45.6584645" lon="12.2685516"><ele>7.000000000000001</ele><time>2026-04-02T16:25:39.074Z</time></trkpt><trkpt lat="45.6584402" lon="12.2684611"><ele>7.0</ele><time>2026-04-02T16:25:43.029Z</time></trkpt><trkpt lat="45.6584212" lon="12.268362"><ele>6.857142857142857</ele><time>2026-04-02T16:25:47.085Z</time></trkpt><trkpt lat="45.6584096" lon="12.2682585"><ele>6.714285714285714</ele><time>2026-04-02T16:25:51.058Z</time></trkpt><trkpt lat="45.6583844" lon="12.2681617"><ele>6.571428571428571</ele><time>2026-04-02T16:25:56.092Z</time></trkpt><trkpt lat="45.6584178" lon="12.2680789"><ele>6.428571428571429</ele><time>2026-04-02T16:26:03.043Z</time></trkpt><trkpt lat="45.6583885" lon="12.2679919"><ele>6.285714285714286</ele><time>2026-04-02T16:26:06.039Z</time></trkpt><trkpt lat="45.6583498" lon="12.2679161"><ele>6.142857142857142</ele><time>2026-04-02T16:26:09.035Z</time></trkpt><trkpt lat="45.6583106" lon="12.2678412"><ele>6.0</ele><time>2026-04-02T16:26:12.031Z</time></trkpt><trkpt lat="45.6582753" lon="12.267759"><ele>6.0</ele><time>2026-04-02T16:26:15.097Z</time></trkpt><trkpt lat="45.6581942" lon="12.267615"><ele>6.0</ele><time>2026-04-02T16:26:22.112Z</time></trkpt><trkpt lat="45.658143" lon="12.267552"><ele>6.0</ele><time>2026-04-02T16:26:28.025Z</time></trkpt><trkpt lat="45.6580822" lon="12.2674915"><ele>6.0</ele><time>2026-04-02T16:26:33.074Z</time></trkpt><trkpt lat="45.6580488" lon="12.2673925"><ele>6.0</ele><time>2026-04-02T16:26:37.029Z</time></trkpt><trkpt lat="45.6580138" lon="12.2673171"><ele>6.0</ele><time>2026-04-02T16:26:40.025Z</time></trkpt><trkpt lat="45.6579939" lon="12.2672277"><ele>5.999999999999999</ele><time>2026-04-02T16:26:43.022Z</time></trkpt><trkpt lat="45.6579546" lon="12.267126"><ele>6.0</ele><time>2026-04-02T16:26:47.096Z</time></trkpt><trkpt lat="45.6578978" lon="12.2670546"><ele>6.0</ele><time>2026-04-02T16:26:50.093Z</time></trkpt><trkpt lat="45.6578655" lon="12.2669503"><ele>6.0</ele><time>2026-04-02T16:26:54.048Z</time></trkpt><trkpt lat="45.6578181" lon="12.2668756"><ele>6.0</ele><time>2026-04-02T16:26:57.061Z</time></trkpt><trkpt lat="45.6578114" lon="12.2667845"><ele>5.999999999999999</ele><time>2026-04-02T16:27:04.007Z</time></trkpt><trkpt lat="45.6577562" lon="12.2667239"><ele>6.0</ele><time>2026-04-02T16:27:12.019Z</time></trkpt><trkpt lat="45.6576662" lon="12.2666592"><ele>6.142857142857142</ele><time>2026-04-02T16:27:14.057Z</time></trkpt><trkpt lat="45.6576231" lon="12.2665628"><ele>6.285714285714286</ele><time>2026-04-02T16:27:17.053Z</time></trkpt><trkpt lat="45.6575911" lon="12.2664816"><ele>6.428571428571429</ele><time>2026-04-02T16:27:20.12Z</time></trkpt><trkpt lat="45.6575869" lon="12.2663685"><ele>6.571428571428571</ele><time>2026-04-02T16:27:24.105Z</time></trkpt><trkpt lat="45.6576146" lon="12.2662744"><ele>6.714285714285714</ele><time>2026-04-02T16:27:27.12Z</time></trkpt><trkpt lat="45.6576476" lon="12.266187"><ele>6.857142857142857</ele><time>2026-04-02T16:27:30.117Z</time></trkpt><trkpt lat="45.6576783" lon="12.2661063"><ele>7.0</ele><time>2026-04-02T16:27:33.113Z</time></trkpt><trkpt lat="45.657731" lon="12.2660475"><ele>7.0</ele><time>2026-04-02T16:27:37.068Z</time></trkpt><trkpt lat="45.6577932" lon="12.2659918"><ele>7.0</ele><time>2026-04-02T16:27:42.102Z</time></trkpt><trkpt lat="45.6578507" lon="12.2659443"><ele>7.0</ele><time>2026-04-02T16:27:45.899Z</time></trkpt><trkpt lat="45.6579115" lon="12.2658805"><ele>7.0</ele><time>2026-04-02T16:27:51.003Z</time></trkpt><trkpt lat="45.6579773" lon="12.265796"><ele>7.0</ele><time>2026-04-02T16:27:54.039Z</time></trkpt><trkpt lat="45.6580415" lon="12.2657419"><ele>7.0</ele><time>2026-04-02T16:27:57.083Z</time></trkpt><trkpt lat="45.6581029" lon="12.2656982"><ele>7.0</ele><time>2026-04-02T16:28:00.122Z</time></trkpt><trkpt lat="45.6581608" lon="12.2656589"><ele>7.142857142857142</ele><time>2026-04-02T16:28:04.034Z</time></trkpt><trkpt lat="45.6582287" lon="12.2656057"><ele>7.285714285714286</ele><time>2026-04-02T16:28:08.042Z</time></trkpt><trkpt lat="45.6582878" lon="12.2655502"><ele>7.428571428571429</ele><time>2026-04-02T16:28:12.064Z</time></trkpt><trkpt lat="45.6583459" lon="12.2654842"><ele>7.571428571428571</ele><time>2026-04-02T16:28:16.121Z</time></trkpt><trkpt lat="45.6583969" lon="12.2654182"><ele>7.7142857142857135</ele><time>2026-04-02T16:28:20.605Z</time></trkpt><trkpt lat="45.6584576" lon="12.2653596"><ele>7.857142857142857</ele><time>2026-04-02T16:28:25.127Z</time></trkpt><trkpt lat="45.6585125" lon="12.2653074"><ele>8.0</ele><time>2026-04-02T16:28:29.082Z</time></trkpt><trkpt lat="45.6585739" lon="12.2652558"><ele>8.0</ele><time>2026-04-02T16:28:33.037Z</time></trkpt><trkpt lat="45.658649" lon="12.2652"><ele>7.999999999999999</ele><time>2026-04-02T16:28:37.112Z</time></trkpt><trkpt lat="45.6587075" lon="12.2651585"><ele>8.0</ele><time>2026-04-02T16:28:40.061Z</time></trkpt><trkpt lat="45.6587612" lon="12.2651107"><ele>8.0</ele><time>2026-04-02T16:28:43.104Z</time></trkpt><trkpt lat="45.6588173" lon="12.2650427"><ele>7.999999999999999</ele><time>2026-04-02T16:28:47.059Z</time></trkpt><trkpt lat="45.6588898" lon="12.2649887"><ele>8.0</ele><time>2026-04-02T16:28:51.014Z</time></trkpt><trkpt lat="45.6589446" lon="12.2649419"><ele>8.0</ele><time>2026-04-02T16:28:54.062Z</time></trkpt><trkpt lat="45.6590137" lon="12.2648768"><ele>7.999999999999999</ele><time>2026-04-02T16:28:58.087Z</time></trkpt><trkpt lat="45.6590696" lon="12.2648072"><ele>8.0</ele><time>2026-04-02T16:29:02.998Z</time></trkpt><trkpt lat="45.6591332" lon="12.2647764"><ele>8.0</ele><time>2026-04-02T16:29:07.073Z</time></trkpt><trkpt lat="45.6591932" lon="12.2647445"><ele>8.0</ele><time>2026-04-02T16:29:11.028Z</time></trkpt><trkpt lat="45.6592649" lon="12.2646861"><ele>7.999999999999999</ele><time>2026-04-02T16:29:15.101Z</time></trkpt><trkpt lat="45.659341" lon="12.2646428"><ele>8.0</ele><time>2026-04-02T16:29:19.057Z</time></trkpt><trkpt lat="45.6594208" lon="12.2646242"><ele>8.285714285714285</ele><time>2026-04-02T16:29:22.964Z</time></trkpt><trkpt lat="45.6594925" lon="12.2646473"><ele>8.571428571428571</ele><time>2026-04-02T16:29:26.008Z</time></trkpt><trkpt lat="45.6595538" lon="12.2646682"><ele>8.857142857142858</ele><time>2026-04-02T16:29:29.004Z</time></trkpt><trkpt lat="45.6596162" lon="12.2646528"><ele>9.142857142857142</ele><time>2026-04-02T16:29:32.052Z</time></trkpt><trkpt lat="45.6596838" lon="12.2646278"><ele>9.428571428571429</ele><time>2026-04-02T16:29:36.075Z</time></trkpt><trkpt lat="45.6597507" lon="12.2645829"><ele>9.714285714285714</ele><time>2026-04-02T16:29:40.03Z</time></trkpt><trkpt lat="45.6598213" lon="12.2645171"><ele>10.0</ele><time>2026-04-02T16:29:44.007Z</time></trkpt><trkpt lat="45.6598859" lon="12.2644875"><ele>10.0</ele><time>2026-04-02T16:29:47.092Z</time></trkpt><trkpt lat="45.659948" lon="12.2644613"><ele>10.0</ele><time>2026-04-02T16:29:51.056Z</time></trkpt><trkpt lat="45.6600195" lon="12.2644356"><ele>10.0</ele><time>2026-04-02T16:29:56.089Z</time></trkpt><trkpt lat="45.6600877" lon="12.264415"><ele>10.0</ele><time>2026-04-02T16:30:00.044Z</time></trkpt><trkpt lat="45.6601513" lon="12.2644118"><ele>10.0</ele><time>2026-04-02T16:30:02.913Z</time></trkpt><trkpt lat="45.6602227" lon="12.2643946"><ele>10.0</ele><time>2026-04-02T16:30:06.947Z</time></trkpt><trkpt lat="45.6602881" lon="12.2643592"><ele>10.0</ele><time>2026-04-02T16:30:11.032Z</time></trkpt><trkpt lat="45.6603661" lon="12.2643284"><ele>10.0</ele><time>2026-04-02T16:30:15.088Z</time></trkpt><trkpt lat="45.6604363" lon="12.2643586"><ele>10.0</ele><time>2026-04-02T16:30:18.021Z</time></trkpt><trkpt lat="45.66052" lon="12.2643403"><ele>10.0</ele><time>2026-04-02T16:30:21.976Z</time></trkpt><trkpt lat="45.6605895" lon="12.2643325"><ele>10.0</ele><time>2026-04-02T16:30:25.092Z</time></trkpt><trkpt lat="45.6606672" lon="12.2643622"><ele>10.0</ele><time>2026-04-02T16:30:28.909Z</time></trkpt><trkpt lat="45.6607327" lon="12.264332"><ele>10.0</ele><time>2026-04-02T16:30:31.994Z</time></trkpt><trkpt lat="45.660801" lon="12.2643279"><ele>10.0</ele><time>2026-04-02T16:30:36.07Z</time></trkpt><trkpt lat="45.6608635" lon="12.2643537"><ele>10.0</ele><time>2026-04-02T16:30:41.031Z</time></trkpt><trkpt lat="45.6609343" lon="12.2643402"><ele>10.0</ele><time>2026-04-02T16:30:45.846Z</time></trkpt><trkpt lat="45.6610001" lon="12.2643208"><ele>10.0</ele><time>2026-04-02T16:30:49.06Z</time></trkpt><trkpt lat="45.6610882" lon="12.2643234"><ele>10.0</ele><time>2026-04-02T16:30:53.066Z</time></trkpt><trkpt lat="45.6611547" lon="12.2643098"><ele>10.0</ele><time>2026-04-02T16:30:56.213Z</time></trkpt><trkpt lat="45.6612269" lon="12.2642799"><ele>10.0</ele><time>2026-04-02T16:31:00.408Z</time></trkpt><trkpt lat="45.6612981" lon="12.2642563"><ele>10.0</ele><time>2026-04-02T16:31:04.552Z</time></trkpt><trkpt lat="45.6613727" lon="12.2642729"><ele>10.166666666666668</ele><time>2026-04-02T16:31:08.726Z</time></trkpt><trkpt lat="45.6614433" lon="12.2642738"><ele>10.333333333333334</ele><time>2026-04-02T16:31:12.893Z</time></trkpt><trkpt lat="45.6615241" lon="12.2642655"><ele>10.5</ele><time>2026-04-02T16:31:17.046Z</time></trkpt><trkpt lat="45.6616002" lon="12.2642313"><ele>10.666666666666666</ele><time>2026-04-02T16:31:21.048Z</time></trkpt><trkpt lat="45.6616645" lon="12.2641877"><ele>10.833333333333332</ele><time>2026-04-02T16:31:25.003Z</time></trkpt><trkpt lat="45.6617352" lon="12.2641431"><ele>11.0</ele><time>2026-04-02T16:31:28.97Z</time></trkpt><trkpt lat="45.6618065" lon="12.2641186"><ele>11.0</ele><time>2026-04-02T16:31:33.035Z</time></trkpt><trkpt lat="45.6618775" lon="12.2640784"><ele>11.0</ele><time>2026-04-02T16:31:38.066Z</time></trkpt><trkpt lat="45.6619424" lon="12.2640605"><ele>11.0</ele><time>2026-04-02T16:31:42.02Z</time></trkpt><trkpt lat="45.6620183" lon="12.2640232"><ele>11.0</ele><time>2026-04-02T16:31:45.975Z</time></trkpt><trkpt lat="45.6620902" lon="12.2639767"><ele>11.0</ele><time>2026-04-02T16:31:50.05Z</time></trkpt><trkpt lat="45.662153" lon="12.2639212"><ele>11.0</ele><time>2026-04-02T16:31:54.005Z</time></trkpt><trkpt lat="45.6622215" lon="12.2638841"><ele>11.0</ele><time>2026-04-02T16:31:57.896Z</time></trkpt><trkpt lat="45.6622825" lon="12.2638449"><ele>11.166666666666666</ele><time>2026-04-02T16:32:00.968Z</time></trkpt><trkpt lat="45.6623523" lon="12.2637998"><ele>11.333333333333332</ele><time>2026-04-02T16:32:04.973Z</time></trkpt><trkpt lat="45.6624277" lon="12.2637634"><ele>11.5</ele><time>2026-04-02T16:32:09.087Z</time></trkpt><trkpt lat="45.6625069" lon="12.2637252"><ele>11.666666666666666</ele><time>2026-04-02T16:32:13.052Z</time></trkpt><trkpt lat="45.6625807" lon="12.2636737"><ele>11.833333333333334</ele><time>2026-04-02T16:32:17.069Z</time></trkpt><trkpt lat="45.6626383" lon="12.2636218"><ele>12.0</ele><time>2026-04-02T16:32:20.969Z</time></trkpt><trkpt lat="45.6627017" lon="12.2635639"><ele>12.0</ele><time>2026-04-02T16:32:25.044Z</time></trkpt><trkpt lat="45.6627671" lon="12.26349"><ele>12.0</ele><time>2026-04-02T16:32:28.999Z</time></trkpt><trkpt lat="45.662834" lon="12.263422"><ele>12.0</ele><time>2026-04-02T16:32:33.073Z</time></trkpt><trkpt lat="45.6628904" lon="12.2633591"><ele>12.0</ele><time>2026-04-02T16:32:37.028Z</time></trkpt><trkpt lat="45.662936" lon="12.2632697"><ele>12.0</ele><time>2026-04-02T16:32:40.983Z</time></trkpt><trkpt lat="45.6629816" lon="12.2631893"><ele>12.0</ele><time>2026-04-02T16:32:45.057Z</time></trkpt><trkpt lat="45.6630276" lon="12.2631054"><ele>11.5</ele><time>2026-04-02T16:32:49.012Z</time></trkpt><trkpt lat="45.6630788" lon="12.2630226"><ele>11.0</ele><time>2026-04-02T16:32:53.089Z</time></trkpt><trkpt lat="45.6631243" lon="12.2629267"><ele>10.5</ele><time>2026-04-02T16:32:57.054Z</time></trkpt><trkpt lat="45.6631712" lon="12.2628414"><ele>10.0</ele><time>2026-04-02T16:33:00.996Z</time></trkpt><trkpt lat="45.6632051" lon="12.2627609"><ele>9.5</ele><time>2026-04-02T16:33:04.951Z</time></trkpt><trkpt lat="45.66324" lon="12.2626566"><ele>9.0</ele><time>2026-04-02T16:33:09.984Z</time></trkpt><trkpt lat="45.6632817" lon="12.2625659"><ele>9.000000000000002</ele><time>2026-04-02T16:33:14.059Z</time></trkpt><trkpt lat="45.663299" lon="12.2624533"><ele>9.0</ele><time>2026-04-02T16:33:18.026Z</time></trkpt><trkpt lat="45.6633032" lon="12.2623633"><ele>9.0</ele><time>2026-04-02T16:33:20.992Z</time></trkpt><trkpt lat="45.6633143" lon="12.2622734"><ele>9.0</ele><time>2026-04-02T16:33:23.928Z</time></trkpt><trkpt lat="45.6633218" lon="12.2621825"><ele>9.0</ele><time>2026-04-02T16:33:26.954Z</time></trkpt><trkpt lat="45.6633453" lon="12.2620919"><ele>9.000000000000002</ele><time>2026-04-02T16:33:30.928Z</time></trkpt><trkpt lat="45.6633657" lon="12.2619958"><ele>9.0</ele><time>2026-04-02T16:33:34.893Z</time></trkpt><trkpt lat="45.6633654" lon="12.2618824"><ele>9.142857142857144</ele><time>2026-04-02T16:33:38.849Z</time></trkpt><trkpt lat="45.6633685" lon="12.2617772"><ele>9.285714285714286</ele><time>2026-04-02T16:33:43.061Z</time></trkpt><trkpt lat="45.6633665" lon="12.2616756"><ele>9.428571428571429</ele><time>2026-04-02T16:33:47.015Z</time></trkpt><trkpt lat="45.6633298" lon="12.2615874"><ele>9.571428571428573</ele><time>2026-04-02T16:33:50.97Z</time></trkpt><trkpt lat="45.6632978" lon="12.2614946"><ele>9.714285714285715</ele><time>2026-04-02T16:33:55.045Z</time></trkpt><trkpt lat="45.6632474" lon="12.2614171"><ele>9.857142857142858</ele><time>2026-04-02T16:33:59Z</time></trkpt><trkpt lat="45.663193" lon="12.2613535"><ele>10.0</ele><time>2026-04-02T16:34:02.954Z</time></trkpt><trkpt lat="45.6631385" lon="12.2612694"><ele>10.0</ele><time>2026-04-02T16:34:07.029Z</time></trkpt><trkpt lat="45.6630977" lon="12.2611988"><ele>10.0</ele><time>2026-04-02T16:34:10.025Z</time></trkpt><trkpt lat="45.6630318" lon="12.2611336"><ele>10.0</ele><time>2026-04-02T16:34:13.98Z</time></trkpt><trkpt lat="45.6629741" lon="12.2610686"><ele>10.0</ele><time>2026-04-02T16:34:18.054Z</time></trkpt><trkpt lat="45.6629081" lon="12.2610047"><ele>10.0</ele><time>2026-04-02T16:34:22.968Z</time></trkpt><trkpt lat="45.662837" lon="12.2609659"><ele>10.0</ele><time>2026-04-02T16:34:27.042Z</time></trkpt><trkpt lat="45.6627659" lon="12.260915"><ele>9.857142857142858</ele><time>2026-04-02T16:34:30.997Z</time></trkpt><trkpt lat="45.6627007" lon="12.2608791"><ele>9.714285714285715</ele><time>2026-04-02T16:34:34.067Z</time></trkpt><trkpt lat="45.6626298" lon="12.2608399"><ele>9.571428571428573</ele><time>2026-04-02T16:34:38.068Z</time></trkpt><trkpt lat="45.6625683" lon="12.2607739"><ele>9.428571428571429</ele><time>2026-04-02T16:34:41.974Z</time></trkpt><trkpt lat="45.6625181" lon="12.2606934"><ele>9.285714285714286</ele><time>2026-04-02T16:34:46.049Z</time></trkpt><trkpt lat="45.6624859" lon="12.260613"><ele>9.142857142857144</ele><time>2026-04-02T16:34:49.575Z</time></trkpt><trkpt lat="45.6624771" lon="12.26051"><ele>9.0</ele><time>2026-04-02T16:34:53.549Z</time></trkpt><trkpt lat="45.6625135" lon="12.2604235"><ele>9.000000000000002</ele><time>2026-04-02T16:34:56.665Z</time></trkpt><trkpt lat="45.6625565" lon="12.2603479"><ele>9.0</ele><time>2026-04-02T16:34:59.67Z</time></trkpt><trkpt lat="45.6626179" lon="12.2602653"><ele>9.0</ele><time>2026-04-02T16:35:03.725Z</time></trkpt><trkpt lat="45.662669" lon="12.2602044"><ele>9.0</ele><time>2026-04-02T16:35:06.753Z</time></trkpt><trkpt lat="45.6627215" lon="12.2601545"><ele>9.0</ele><time>2026-04-02T16:35:09.768Z</time></trkpt><trkpt lat="45.66278" lon="12.2601081"><ele>9.000000000000002</ele><time>2026-04-02T16:35:12.854Z</time></trkpt><trkpt lat="45.6628364" lon="12.2600643"><ele>9.0</ele><time>2026-04-02T16:35:15.849Z</time></trkpt><trkpt lat="45.6628931" lon="12.2600219"><ele>9.0</ele><time>2026-04-02T16:35:19.053Z</time></trkpt><trkpt lat="45.6629719" lon="12.2599708"><ele>9.0</ele><time>2026-04-02T16:35:23.87Z</time></trkpt><trkpt lat="45.6630363" lon="12.2599129"><ele>9.0</ele><time>2026-04-02T16:35:27.973Z</time></trkpt><trkpt lat="45.6631039" lon="12.259848"><ele>9.0</ele><time>2026-04-02T16:35:31.948Z</time></trkpt><trkpt lat="45.6631714" lon="12.259792"><ele>9.0</ele><time>2026-04-02T16:35:35.953Z</time></trkpt><trkpt lat="45.6632368" lon="12.2597358"><ele>9.0</ele><time>2026-04-02T16:35:39.967Z</time></trkpt><trkpt lat="45.6633004" lon="12.2596981"><ele>8.833333333333334</ele><time>2026-04-02T16:35:43.993Z</time></trkpt><trkpt lat="45.6633549" lon="12.2596286"><ele>8.666666666666666</ele><time>2026-04-02T16:35:48.027Z</time></trkpt><trkpt lat="45.6634088" lon="12.2595602"><ele>8.5</ele><time>2026-04-02T16:35:52.071Z</time></trkpt><trkpt lat="45.6634689" lon="12.2594918"><ele>8.333333333333332</ele><time>2026-04-02T16:35:56.085Z</time></trkpt><trkpt lat="45.6635375" lon="12.2594204"><ele>8.166666666666666</ele><time>2026-04-02T16:36:00.038Z</time></trkpt><trkpt lat="45.663595" lon="12.25935"><ele>8.0</ele><time>2026-04-02T16:36:03.993Z</time></trkpt><trkpt lat="45.6636329" lon="12.2592607"><ele>8.285714285714285</ele><time>2026-04-02T16:36:07.948Z</time></trkpt><trkpt lat="45.6636658" lon="12.2591554"><ele>8.571428571428571</ele><time>2026-04-02T16:36:12.022Z</time></trkpt><trkpt lat="45.6637152" lon="12.2590693"><ele>8.857142857142858</ele><time>2026-04-02T16:36:15.871Z</time></trkpt><trkpt lat="45.6637657" lon="12.2590081"><ele>9.142857142857142</ele><time>2026-04-02T16:36:19.913Z</time></trkpt><trkpt lat="45.6638098" lon="12.2589285"><ele>9.428571428571429</ele><time>2026-04-02T16:36:23.95Z</time></trkpt><trkpt lat="45.6638524" lon="12.2588451"><ele>9.714285714285714</ele><time>2026-04-02T16:36:27.953Z</time></trkpt><trkpt lat="45.6638836" lon="12.2587544"><ele>10.0</ele><time>2026-04-02T16:36:32.026Z</time></trkpt><trkpt lat="45.6639174" lon="12.2586695"><ele>10.0</ele><time>2026-04-02T16:36:36.033Z</time></trkpt><trkpt lat="45.6639832" lon="12.2585983"><ele>10.0</ele><time>2026-04-02T16:36:40.007Z</time></trkpt><trkpt lat="45.6640389" lon="12.2585401"><ele>10.0</ele><time>2026-04-02T16:36:42.992Z</time></trkpt><trkpt lat="45.6640914" lon="12.2584835"><ele>10.0</ele><time>2026-04-02T16:36:45.97Z</time></trkpt><trkpt lat="45.6641471" lon="12.2584059"><ele>10.0</ele><time>2026-04-02T16:36:50.013Z</time></trkpt><trkpt lat="45.6641941" lon="12.2583457"><ele>10.0</ele><time>2026-04-02T16:36:53.966Z</time></trkpt><trkpt lat="45.6642447" lon="12.2582627"><ele>10.0</ele><time>2026-04-02T16:36:58.053Z</time></trkpt><trkpt lat="45.6642879" lon="12.2581722"><ele>9.857142857142858</ele><time>2026-04-02T16:37:01.996Z</time></trkpt><trkpt lat="45.6643318" lon="12.2580894"><ele>9.714285714285715</ele><time>2026-04-02T16:37:05.95Z</time></trkpt><trkpt lat="45.6643798" lon="12.2580104"><ele>9.571428571428573</ele><time>2026-04-02T16:37:10.025Z</time></trkpt><trkpt lat="45.6644256" lon="12.2579378"><ele>9.428571428571429</ele><time>2026-04-02T16:37:13.98Z</time></trkpt><trkpt lat="45.6644743" lon="12.2578755"><ele>9.285714285714286</ele><time>2026-04-02T16:37:18.054Z</time></trkpt><trkpt lat="45.6645155" lon="12.2577883"><ele>9.142857142857144</ele><time>2026-04-02T16:37:22.009Z</time></trkpt><trkpt lat="45.6645539" lon="12.257703"><ele>9.0</ele><time>2026-04-02T16:37:25.964Z</time></trkpt><trkpt lat="45.6645501" lon="12.2576128"><ele>9.285714285714286</ele><time>2026-04-02T16:37:30.997Z</time></trkpt><trkpt lat="45.6645865" lon="12.2575233"><ele>9.571428571428571</ele><time>2026-04-02T16:37:35.91Z</time></trkpt><trkpt lat="45.6646074" lon="12.257435"><ele>9.857142857142858</ele><time>2026-04-02T16:37:39.025Z</time></trkpt><trkpt lat="45.6645809" lon="12.2573254"><ele>10.142857142857142</ele><time>2026-04-02T16:37:42.022Z</time></trkpt><trkpt lat="45.6645581" lon="12.2572392"><ele>10.428571428571429</ele><time>2026-04-02T16:37:45.018Z</time></trkpt><trkpt lat="45.6645367" lon="12.2571484"><ele>10.714285714285715</ele><time>2026-04-02T16:37:48.014Z</time></trkpt><trkpt lat="45.6645244" lon="12.2570496"><ele>11.0</ele><time>2026-04-02T16:37:51.01Z</time></trkpt><trkpt lat="45.664518" lon="12.2569507"><ele>11.0</ele><time>2026-04-02T16:37:54.006Z</time></trkpt><trkpt lat="45.6644928" lon="12.2568525"><ele>11.0</ele><time>2026-04-02T16:37:57.913Z</time></trkpt><trkpt lat="45.6644564" lon="12.2567703"><ele>11.0</ele><time>2026-04-02T16:38:02.027Z</time></trkpt><trkpt lat="45.6644224" lon="12.2566565"><ele>11.0</ele><time>2026-04-02T16:38:07.01Z</time></trkpt><trkpt lat="45.6643972" lon="12.2565642"><ele>11.0</ele><time>2026-04-02T16:38:10.047Z</time></trkpt><trkpt lat="45.6643671" lon="12.2564762"><ele>11.0</ele><time>2026-04-02T16:38:14.019Z</time></trkpt><trkpt lat="45.6643185" lon="12.256393"><ele>11.0</ele><time>2026-04-02T16:38:17.974Z</time></trkpt><trkpt lat="45.6642596" lon="12.2563273"><ele>10.714285714285715</ele><time>2026-04-02T16:38:22.049Z</time></trkpt><trkpt lat="45.6642163" lon="12.2562489"><ele>10.428571428571429</ele><time>2026-04-02T16:38:26.004Z</time></trkpt><trkpt lat="45.6641644" lon="12.2561651"><ele>10.142857142857142</ele><time>2026-04-02T16:38:29.958Z</time></trkpt><trkpt lat="45.6641107" lon="12.2561107"><ele>9.857142857142858</ele><time>2026-04-02T16:38:32.945Z</time></trkpt><trkpt lat="45.6640553" lon="12.2560483"><ele>9.571428571428571</ele><time>2026-04-02T16:38:36.012Z</time></trkpt><trkpt lat="45.6640219" lon="12.2559625"><ele>9.285714285714286</ele><time>2026-04-02T16:38:40.025Z</time></trkpt><trkpt lat="45.6639988" lon="12.2558702"><ele>9.0</ele><time>2026-04-02T16:38:43.98Z</time></trkpt><trkpt lat="45.6639792" lon="12.2557734"><ele>9.0</ele><time>2026-04-02T16:38:48.054Z</time></trkpt><trkpt lat="45.6639259" lon="12.2556933"><ele>9.0</ele><time>2026-04-02T16:38:52.909Z</time></trkpt><trkpt lat="45.663906" lon="12.2555823"><ele>9.0</ele><time>2026-04-02T16:38:57.094Z</time></trkpt><trkpt lat="45.6639044" lon="12.2554826"><ele>9.0</ele><time>2026-04-02T16:39:00.038Z</time></trkpt><trkpt lat="45.6639114" lon="12.2553754"><ele>9.0</ele><time>2026-04-02T16:39:03.034Z</time></trkpt><trkpt lat="45.6639173" lon="12.2552588"><ele>9.0</ele><time>2026-04-02T16:39:06.932Z</time></trkpt><trkpt lat="45.6639201" lon="12.2551558"><ele>9.285714285714286</ele><time>2026-04-02T16:39:11.045Z</time></trkpt><trkpt lat="45.6639008" lon="12.2550618"><ele>9.571428571428571</ele><time>2026-04-02T16:39:15.229Z</time></trkpt><trkpt lat="45.6638796" lon="12.2549741"><ele>9.857142857142858</ele><time>2026-04-02T16:39:19.375Z</time></trkpt><trkpt lat="45.6638586" lon="12.2548751"><ele>10.142857142857142</ele><time>2026-04-02T16:39:23.989Z</time></trkpt><trkpt lat="45.6638521" lon="12.2547782"><ele>10.428571428571429</ele><time>2026-04-02T16:39:27.961Z</time></trkpt><trkpt lat="45.6638519" lon="12.2546848"><ele>10.714285714285715</ele><time>2026-04-02T16:39:32.035Z</time></trkpt><trkpt lat="45.6638304" lon="12.2545769"><ele>11.0</ele><time>2026-04-02T16:39:35.99Z</time></trkpt><trkpt lat="45.6638072" lon="12.2544908"><ele>11.428571428571429</ele><time>2026-04-02T16:39:38.986Z</time></trkpt><trkpt lat="45.6637735" lon="12.2544092"><ele>11.857142857142858</ele><time>2026-04-02T16:39:41.982Z</time></trkpt><trkpt lat="45.6637518" lon="12.2543111"><ele>12.285714285714285</ele><time>2026-04-02T16:39:45.909Z</time></trkpt><trkpt lat="45.6637494" lon="12.2542112"><ele>12.714285714285715</ele><time>2026-04-02T16:39:50.044Z</time></trkpt><trkpt lat="45.6637401" lon="12.2540996"><ele>13.142857142857142</ele><time>2026-04-02T16:39:55.044Z</time></trkpt><trkpt lat="45.6637248" lon="12.2540039"><ele>13.571428571428571</ele><time>2026-04-02T16:39:58.999Z</time></trkpt><trkpt lat="45.6637136" lon="12.2539056"><ele>14.0</ele><time>2026-04-02T16:40:02.954Z</time></trkpt><trkpt lat="45.6637027" lon="12.2538124"><ele>14.428571428571429</ele><time>2026-04-02T16:40:07.028Z</time></trkpt><trkpt lat="45.6636939" lon="12.2537085"><ele>14.857142857142858</ele><time>2026-04-02T16:40:10.848Z</time></trkpt><trkpt lat="45.6636797" lon="12.2535982"><ele>15.285714285714285</ele><time>2026-04-02T16:40:14.96Z</time></trkpt><trkpt lat="45.6636633" lon="12.2534987"><ele>15.714285714285714</ele><time>2026-04-02T16:40:19.012Z</time></trkpt><trkpt lat="45.6636545" lon="12.2534065"><ele>16.142857142857142</ele><time>2026-04-02T16:40:22.008Z</time></trkpt><trkpt lat="45.6636407" lon="12.2532916"><ele>16.57142857142857</ele><time>2026-04-02T16:40:25.963Z</time></trkpt><trkpt lat="45.6636206" lon="12.2531945"><ele>17.0</ele><time>2026-04-02T16:40:30.038Z</time></trkpt><trkpt lat="45.6635959" lon="12.2531073"><ele>15.666666666666668</ele><time>2026-04-02T16:40:33.992Z</time></trkpt><trkpt lat="45.6635594" lon="12.2530088"><ele>14.333333333333334</ele><time>2026-04-02T16:40:39.026Z</time></trkpt><trkpt lat="45.6635344" lon="12.252907"><ele>13.0</ele><time>2026-04-02T16:40:44.059Z</time></trkpt><trkpt lat="45.6635244" lon="12.2528"><ele>11.666666666666668</ele><time>2026-04-02T16:40:48.014Z</time></trkpt><trkpt lat="45.6635048" lon="12.2526969"><ele>10.333333333333334</ele><time>2026-04-02T16:40:51.92Z</time></trkpt><trkpt lat="45.6634772" lon="12.2525988"><ele>9.0</ele><time>2026-04-02T16:40:56.085Z</time></trkpt><trkpt lat="45.6634545" lon="12.2524855"><ele>9.000000000000002</ele><time>2026-04-02T16:40:59.998Z</time></trkpt><trkpt lat="45.6634299" lon="12.2524008"><ele>9.0</ele><time>2026-04-02T16:41:02.994Z</time></trkpt><trkpt lat="45.6633987" lon="12.252318"><ele>9.0</ele><time>2026-04-02T16:41:05.99Z</time></trkpt><trkpt lat="45.6633637" lon="12.2522401"><ele>9.0</ele><time>2026-04-02T16:41:09.944Z</time></trkpt><trkpt lat="45.6633514" lon="12.25215"><ele>9.0</ele><time>2026-04-02T16:41:14.019Z</time></trkpt><trkpt lat="45.6633791" lon="12.2520451"><ele>9.000000000000002</ele><time>2026-04-02T16:41:17.974Z</time></trkpt><trkpt lat="45.6634127" lon="12.2519364"><ele>9.0</ele><time>2026-04-02T16:41:21.88Z</time></trkpt><trkpt lat="45.6634551" lon="12.2518667"><ele>9.285714285714286</ele><time>2026-04-02T16:41:26.003Z</time></trkpt><trkpt lat="45.6634999" lon="12.2517913"><ele>9.571428571428571</ele><time>2026-04-02T16:41:29.021Z</time></trkpt><trkpt lat="45.6635503" lon="12.2516932"><ele>9.857142857142858</ele><time>2026-04-02T16:41:33.085Z</time></trkpt><trkpt lat="45.6636087" lon="12.2516247"><ele>10.142857142857142</ele><time>2026-04-02T16:41:37.028Z</time></trkpt><trkpt lat="45.663672" lon="12.2515667"><ele>10.428571428571429</ele><time>2026-04-02T16:41:40.983Z</time></trkpt><trkpt lat="45.6637281" lon="12.2515042"><ele>10.714285714285715</ele><time>2026-04-02T16:41:45.058Z</time></trkpt><trkpt lat="45.6637716" lon="12.2514239"><ele>11.0</ele><time>2026-04-02T16:42:00.048Z</time></trkpt><trkpt lat="45.6638205" lon="12.2513664"><ele>11.142857142857142</ele><time>2026-04-02T16:42:03.046Z</time></trkpt><trkpt lat="45.6638792" lon="12.2513224"><ele>11.285714285714285</ele><time>2026-04-02T16:42:06.03Z</time></trkpt><trkpt lat="45.6639531" lon="12.2512812"><ele>11.428571428571427</ele><time>2026-04-02T16:42:09.984Z</time></trkpt><trkpt lat="45.6640214" lon="12.2512469"><ele>11.571428571428571</ele><time>2026-04-02T16:42:14.059Z</time></trkpt><trkpt lat="45.66408" lon="12.2511868"><ele>11.714285714285714</ele><time>2026-04-02T16:42:18.014Z</time></trkpt><trkpt lat="45.6641451" lon="12.2511319"><ele>11.857142857142856</ele><time>2026-04-02T16:42:21.969Z</time></trkpt><trkpt lat="45.6642121" lon="12.2510998"><ele>12.0</ele><time>2026-04-02T16:42:26.043Z</time></trkpt><trkpt lat="45.6642688" lon="12.2510506"><ele>11.999999999999998</ele><time>2026-04-02T16:42:29.801Z</time></trkpt><trkpt lat="45.6642802" lon="12.2509433"><ele>12.0</ele><time>2026-04-02T16:42:34.963Z</time></trkpt><trkpt lat="45.6642814" lon="12.2508526"><ele>12.0</ele><time>2026-04-02T16:42:39.008Z</time></trkpt><trkpt lat="45.6642646" lon="12.2507458"><ele>12.0</ele><time>2026-04-02T16:42:42.941Z</time></trkpt><trkpt lat="45.6642518" lon="12.2506563"><ele>12.0</ele><time>2026-04-02T16:42:46.056Z</time></trkpt><trkpt lat="45.6642495" lon="12.2505629"><ele>11.999999999999998</ele><time>2026-04-02T16:42:49.053Z</time></trkpt><trkpt lat="45.6642388" lon="12.2504447"><ele>12.0</ele><time>2026-04-02T16:42:53.007Z</time></trkpt><trkpt lat="45.6642349" lon="12.2503502"><ele>11.857142857142856</ele><time>2026-04-02T16:42:56.003Z</time></trkpt><trkpt lat="45.6642247" lon="12.2502305"><ele>11.714285714285714</ele><time>2026-04-02T16:42:59.9Z</time></trkpt><trkpt lat="45.6642053" lon="12.2501286"><ele>11.571428571428571</ele><time>2026-04-02T16:43:02.906Z</time></trkpt><trkpt lat="45.664177" lon="12.2500277"><ele>11.428571428571427</ele><time>2026-04-02T16:43:07.001Z</time></trkpt><trkpt lat="45.6641465" lon="12.2499413"><ele>11.285714285714285</ele><time>2026-04-02T16:43:11.026Z</time></trkpt><trkpt lat="45.6641125" lon="12.24985"><ele>11.142857142857142</ele><time>2026-04-02T16:43:15.081Z</time></trkpt><trkpt lat="45.6640704" lon="12.2497721"><ele>11.0</ele><time>2026-04-02T16:43:19.013Z</time></trkpt><trkpt lat="45.6640388" lon="12.2496903"><ele>11.0</ele><time>2026-04-02T16:43:22.967Z</time></trkpt><trkpt lat="45.6640109" lon="12.2496045"><ele>11.0</ele><time>2026-04-02T16:43:27.042Z</time></trkpt><trkpt lat="45.6639818" lon="12.2495244"><ele>11.0</ele><time>2026-04-02T16:43:30.997Z</time></trkpt><trkpt lat="45.663948" lon="12.249422"><ele>11.0</ele><time>2026-04-02T16:43:35.083Z</time></trkpt><trkpt lat="45.6639278" lon="12.2493344"><ele>11.0</ele><time>2026-04-02T16:43:38.067Z</time></trkpt><trkpt lat="45.6639146" lon="12.2492396"><ele>11.0</ele><time>2026-04-02T16:43:41.064Z</time></trkpt><trkpt lat="45.6638973" lon="12.2491514"><ele>11.0</ele><time>2026-04-02T16:43:44.06Z</time></trkpt><trkpt lat="45.6638789" lon="12.2490564"><ele>11.142857142857142</ele><time>2026-04-02T16:43:48.014Z</time></trkpt><trkpt lat="45.6638519" lon="12.2489544"><ele>11.285714285714285</ele><time>2026-04-02T16:43:51.969Z</time></trkpt><trkpt lat="45.6638295" lon="12.2488538"><ele>11.428571428571427</ele><time>2026-04-02T16:43:55.866Z</time></trkpt><trkpt lat="45.6638017" lon="12.2487535"><ele>11.571428571428571</ele><time>2026-04-02T16:44:00.001Z</time></trkpt><trkpt lat="45.6637509" lon="12.2486727"><ele>11.714285714285714</ele><time>2026-04-02T16:44:04.073Z</time></trkpt><trkpt lat="45.6636764" lon="12.2486735"><ele>11.857142857142856</ele><time>2026-04-02T16:44:08.028Z</time></trkpt><trkpt lat="45.6636089" lon="12.2486899"><ele>12.0</ele><time>2026-04-02T16:44:12.903Z</time></trkpt><trkpt lat="45.663551" lon="12.2486097"><ele>11.999999999999998</ele><time>2026-04-02T16:44:18.007Z</time></trkpt><trkpt lat="45.6635164" lon="12.2485246"><ele>12.0</ele><time>2026-04-02T16:44:22.049Z</time></trkpt><trkpt lat="45.6635026" lon="12.2484234"><ele>12.0</ele><time>2026-04-02T16:44:25.045Z</time></trkpt><trkpt lat="45.6635051" lon="12.2483232"><ele>12.0</ele><time>2026-04-02T16:44:28.041Z</time></trkpt><trkpt lat="45.6635015" lon="12.2482308"><ele>12.0</ele><time>2026-04-02T16:44:31.996Z</time></trkpt><trkpt lat="45.6634768" lon="12.2481456"><ele>11.999999999999998</ele><time>2026-04-02T16:44:35.95Z</time></trkpt><trkpt lat="45.6634479" lon="12.2480401"><ele>12.0</ele><time>2026-04-02T16:44:40.025Z</time></trkpt><trkpt lat="45.663444" lon="12.2479214"><ele>12.428571428571427</ele><time>2026-04-02T16:44:44.021Z</time></trkpt><trkpt lat="45.6634403" lon="12.2478276"><ele>12.857142857142858</ele><time>2026-04-02T16:44:47.088Z</time></trkpt><trkpt lat="45.6634455" lon="12.2477374"><ele>13.285714285714285</ele><time>2026-04-02T16:44:50.163Z</time></trkpt><trkpt lat="45.6634345" lon="12.247634"><ele>13.714285714285714</ele><time>2026-04-02T16:44:54.267Z</time></trkpt><trkpt lat="45.6634283" lon="12.2475375"><ele>14.142857142857142</ele><time>2026-04-02T16:44:58.323Z</time></trkpt><trkpt lat="45.6634447" lon="12.2474193"><ele>14.571428571428571</ele><time>2026-04-02T16:45:02.388Z</time></trkpt><trkpt lat="45.6634522" lon="12.2473281"><ele>15.0</ele><time>2026-04-02T16:45:05.424Z</time></trkpt><trkpt lat="45.6634325" lon="12.247226"><ele>15.285714285714286</ele><time>2026-04-02T16:45:09.468Z</time></trkpt><trkpt lat="45.6633988" lon="12.2471326"><ele>15.57142857142857</ele><time>2026-04-02T16:45:14.042Z</time></trkpt><trkpt lat="45.6633753" lon="12.2470348"><ele>15.857142857142856</ele><time>2026-04-02T16:45:17.966Z</time></trkpt><trkpt lat="45.663365" lon="12.2469245"><ele>16.142857142857142</ele><time>2026-04-02T16:45:21.961Z</time></trkpt><trkpt lat="45.6633522" lon="12.2468268"><ele>16.428571428571427</ele><time>2026-04-02T16:45:24.988Z</time></trkpt><trkpt lat="45.6633453" lon="12.2467171"><ele>16.71428571428571</ele><time>2026-04-02T16:45:28.962Z</time></trkpt><trkpt lat="45.6632981" lon="12.2466371"><ele>17.0</ele><time>2026-04-02T16:45:34.085Z</time></trkpt><trkpt lat="45.6632401" lon="12.2465665"><ele>17.0</ele><time>2026-04-02T16:45:38.987Z</time></trkpt><trkpt lat="45.6631763" lon="12.2465287"><ele>17.0</ele><time>2026-04-02T16:45:42.941Z</time></trkpt><trkpt lat="45.663096" lon="12.2464927"><ele>17.0</ele><time>2026-04-02T16:45:47.016Z</time></trkpt><trkpt lat="45.6630223" lon="12.2464591"><ele>17.0</ele><time>2026-04-02T16:45:50.971Z</time></trkpt><trkpt lat="45.6629497" lon="12.2464219"><ele>17.0</ele><time>2026-04-02T16:45:54.947Z</time></trkpt><trkpt lat="45.6628874" lon="12.2463842"><ele>17.0</ele><time>2026-04-02T16:45:59.063Z</time></trkpt><trkpt lat="45.6628258" lon="12.2463238"><ele>16.666666666666668</ele><time>2026-04-02T16:46:02.955Z</time></trkpt><trkpt lat="45.6627802" lon="12.2462341"><ele>16.333333333333336</ele><time>2026-04-02T16:46:07.029Z</time></trkpt><trkpt lat="45.6627319" lon="12.2461489"><ele>16.0</ele><time>2026-04-02T16:46:10.984Z</time></trkpt><trkpt lat="45.6626795" lon="12.2460762"><ele>15.666666666666668</ele><time>2026-04-02T16:46:14.921Z</time></trkpt><trkpt lat="45.6626155" lon="12.2460142"><ele>15.333333333333334</ele><time>2026-04-02T16:46:19.972Z</time></trkpt><trkpt lat="45.6625568" lon="12.2459495"><ele>15.0</ele><time>2026-04-02T16:46:24.046Z</time></trkpt><trkpt lat="45.6624933" lon="12.2458794"><ele>15.0</ele><time>2026-04-02T16:46:28.003Z</time></trkpt><trkpt lat="45.6624392" lon="12.24579"><ele>15.0</ele><time>2026-04-02T16:46:32.048Z</time></trkpt><trkpt lat="45.6623834" lon="12.2457179"><ele>15.0</ele><time>2026-04-02T16:46:35.123Z</time></trkpt><trkpt lat="45.6623274" lon="12.2456398"><ele>15.0</ele><time>2026-04-02T16:46:39.026Z</time></trkpt><trkpt lat="45.6622936" lon="12.2455539"><ele>15.0</ele><time>2026-04-02T16:46:42.98Z</time></trkpt><trkpt lat="45.6622622" lon="12.245458"><ele>15.0</ele><time>2026-04-02T16:46:48.014Z</time></trkpt><trkpt lat="45.6622324" lon="12.2453645"><ele>14.714285714285715</ele><time>2026-04-02T16:46:53.048Z</time></trkpt><trkpt lat="45.6622069" lon="12.2452759"><ele>14.428571428571427</ele><time>2026-04-02T16:46:56.866Z</time></trkpt><trkpt lat="45.6621716" lon="12.24519"><ele>14.142857142857142</ele><time>2026-04-02T16:46:59.92Z</time></trkpt><trkpt lat="45.662128" lon="12.2451069"><ele>13.857142857142858</ele><time>2026-04-02T16:47:03.027Z</time></trkpt><trkpt lat="45.662085" lon="12.2450188"><ele>13.571428571428573</ele><time>2026-04-02T16:47:06.949Z</time></trkpt><trkpt lat="45.6620457" lon="12.2449325"><ele>13.285714285714285</ele><time>2026-04-02T16:47:11.024Z</time></trkpt><trkpt lat="45.6620277" lon="12.2448231"><ele>13.0</ele><time>2026-04-02T16:47:14.978Z</time></trkpt><trkpt lat="45.6620099" lon="12.2447153"><ele>12.999999999999998</ele><time>2026-04-02T16:47:18.888Z</time></trkpt><trkpt lat="45.662003" lon="12.244598"><ele>13.0</ele><time>2026-04-02T16:47:22.99Z</time></trkpt><trkpt lat="45.661971" lon="12.2444953"><ele>13.0</ele><time>2026-04-02T16:47:27.045Z</time></trkpt><trkpt lat="45.6619317" lon="12.2444088"><ele>13.0</ele><time>2026-04-02T16:47:31.037Z</time></trkpt><trkpt lat="45.6618898" lon="12.2443222"><ele>12.999999999999998</ele><time>2026-04-02T16:47:34.992Z</time></trkpt><trkpt lat="45.6618713" lon="12.2442242"><ele>13.0</ele><time>2026-04-02T16:47:38.889Z</time></trkpt><trkpt lat="45.6618558" lon="12.2441196"><ele>13.166666666666666</ele><time>2026-04-02T16:47:43.021Z</time></trkpt><trkpt lat="45.661853" lon="12.244007"><ele>13.333333333333332</ele><time>2026-04-02T16:47:46.976Z</time></trkpt><trkpt lat="45.6618556" lon="12.2438967"><ele>13.5</ele><time>2026-04-02T16:47:51.013Z</time></trkpt><trkpt lat="45.6618218" lon="12.2437999"><ele>13.666666666666668</ele><time>2026-04-02T16:47:55.007Z</time></trkpt><trkpt lat="45.6617839" lon="12.2436963"><ele>13.833333333333334</ele><time>2026-04-02T16:47:59.032Z</time></trkpt><trkpt lat="45.6617624" lon="12.243599"><ele>14.0</ele><time>2026-04-02T16:48:03.034Z</time></trkpt><trkpt lat="45.6617414" lon="12.2435088"><ele>13.714285714285714</ele><time>2026-04-02T16:48:06.989Z</time></trkpt><trkpt lat="45.6617163" lon="12.2434251"><ele>13.428571428571429</ele><time>2026-04-02T16:48:11.064Z</time></trkpt><trkpt lat="45.6617021" lon="12.2433349"><ele>13.142857142857142</ele><time>2026-04-02T16:48:15.019Z</time></trkpt><trkpt lat="45.6616868" lon="12.243228"><ele>12.857142857142858</ele><time>2026-04-02T16:48:18.973Z</time></trkpt><trkpt lat="45.6616676" lon="12.243139"><ele>12.571428571428571</ele><time>2026-04-02T16:48:21.969Z</time></trkpt><trkpt lat="45.6616366" lon="12.2430337"><ele>12.285714285714285</ele><time>2026-04-02T16:48:26.044Z</time></trkpt><trkpt lat="45.661619" lon="12.2429239"><ele>12.0</ele><time>2026-04-02T16:48:29.999Z</time></trkpt><trkpt lat="45.6616189" lon="12.2428116"><ele>11.833333333333334</ele><time>2026-04-02T16:48:33.953Z</time></trkpt><trkpt lat="45.6616083" lon="12.2426988"><ele>11.666666666666666</ele><time>2026-04-02T16:48:37.95Z</time></trkpt><trkpt lat="45.6615987" lon="12.2425865"><ele>11.5</ele><time>2026-04-02T16:48:42.005Z</time></trkpt><trkpt lat="45.6615732" lon="12.2424896"><ele>11.333333333333332</ele><time>2026-04-02T16:48:46.057Z</time></trkpt><trkpt lat="45.661529" lon="12.2423935"><ele>11.166666666666666</ele><time>2026-04-02T16:48:50.012Z</time></trkpt><trkpt lat="45.6615103" lon="12.2422952"><ele>11.0</ele><time>2026-04-02T16:48:53.967Z</time></trkpt><trkpt lat="45.6614935" lon="12.2421917"><ele>11.333333333333332</ele><time>2026-04-02T16:48:57.893Z</time></trkpt><trkpt lat="45.6614721" lon="12.2420809"><ele>11.666666666666666</ele><time>2026-04-02T16:49:01.989Z</time></trkpt><trkpt lat="45.661457" lon="12.2419699"><ele>12.0</ele><time>2026-04-02T16:49:07.072Z</time></trkpt><trkpt lat="45.661459" lon="12.2418713"><ele>12.333333333333332</ele><time>2026-04-02T16:49:10.984Z</time></trkpt><trkpt lat="45.6614502" lon="12.2417686"><ele>12.666666666666666</ele><time>2026-04-02T16:49:15.059Z</time></trkpt><trkpt lat="45.6614247" lon="12.2416716"><ele>13.0</ele><time>2026-04-02T16:49:19.014Z</time></trkpt><trkpt lat="45.661395" lon="12.241561"><ele>13.285714285714285</ele><time>2026-04-02T16:49:22.971Z</time></trkpt><trkpt lat="45.6613789" lon="12.241455"><ele>13.571428571428573</ele><time>2026-04-02T16:49:27.043Z</time></trkpt><trkpt lat="45.6613407" lon="12.241354"><ele>13.857142857142858</ele><time>2026-04-02T16:49:30.998Z</time></trkpt><trkpt lat="45.6613087" lon="12.241266"><ele>14.142857142857142</ele><time>2026-04-02T16:49:33.994Z</time></trkpt><trkpt lat="45.6613069" lon="12.2411676"><ele>14.428571428571427</ele><time>2026-04-02T16:49:36.99Z</time></trkpt><trkpt lat="45.6613109" lon="12.2410761"><ele>14.714285714285715</ele><time>2026-04-02T16:49:39.985Z</time></trkpt><trkpt lat="45.6613081" lon="12.2409721"><ele>15.0</ele><time>2026-04-02T16:49:44.06Z</time></trkpt><trkpt lat="45.6612743" lon="12.2408781"><ele>15.0</ele><time>2026-04-02T16:49:48.974Z</time></trkpt><trkpt lat="45.6612352" lon="12.2408047"><ele>15.0</ele><time>2026-04-02T16:49:51.97Z</time></trkpt><trkpt lat="45.6611954" lon="12.240734"><ele>15.0</ele><time>2026-04-02T16:49:54.909Z</time></trkpt><trkpt lat="45.6611363" lon="12.2406468"><ele>15.0</ele><time>2026-04-02T16:49:58.973Z</time></trkpt><trkpt lat="45.6610872" lon="12.2405688"><ele>15.0</ele><time>2026-04-02T16:50:02.988Z</time></trkpt><trkpt lat="45.6610531" lon="12.2404835"><ele>15.0</ele><time>2026-04-02T16:50:07.073Z</time></trkpt><trkpt lat="45.6610271" lon="12.2403986"><ele>15.0</ele><time>2026-04-02T16:50:11.025Z</time></trkpt><trkpt lat="45.660994" lon="12.2402966"><ele>15.0</ele><time>2026-04-02T16:50:14.979Z</time></trkpt><trkpt lat="45.6609703" lon="12.2402032"><ele>15.0</ele><time>2026-04-02T16:50:19.055Z</time></trkpt><trkpt lat="45.6609739" lon="12.2401072"><ele>15.0</ele><time>2026-04-02T16:50:23.009Z</time></trkpt><trkpt lat="45.6610009" lon="12.2400032"><ele>15.0</ele><time>2026-04-02T16:50:28.043Z</time></trkpt><trkpt lat="45.6610361" lon="12.2399144"><ele>15.0</ele><time>2026-04-02T16:50:31.039Z</time></trkpt><trkpt lat="45.6610665" lon="12.2397989"><ele>15.0</ele><time>2026-04-02T16:50:34.035Z</time></trkpt><trkpt lat="45.6610908" lon="12.2397078"><ele>15.0</ele><time>2026-04-02T16:50:36.973Z</time></trkpt><trkpt lat="45.6611" lon="12.2396152"><ele>14.666666666666666</ele><time>2026-04-02T16:50:40.089Z</time></trkpt><trkpt lat="45.6611184" lon="12.2395133"><ele>14.333333333333332</ele><time>2026-04-02T16:50:43.981Z</time></trkpt><trkpt lat="45.6611289" lon="12.2394021"><ele>14.0</ele><time>2026-04-02T16:50:48.056Z</time></trkpt><trkpt lat="45.6611545" lon="12.239292"><ele>13.666666666666666</ele><time>2026-04-02T16:50:52.011Z</time></trkpt><trkpt lat="45.6611891" lon="12.2391864"><ele>13.333333333333332</ele><time>2026-04-02T16:50:55.928Z</time></trkpt><trkpt lat="45.6611826" lon="12.2390877"><ele>13.0</ele><time>2026-04-02T16:50:59.972Z</time></trkpt><trkpt lat="45.6612061" lon="12.2389923"><ele>12.857142857142856</ele><time>2026-04-02T16:51:04.087Z</time></trkpt><trkpt lat="45.6612392" lon="12.2389004"><ele>12.714285714285715</ele><time>2026-04-02T16:51:07.95Z</time></trkpt><trkpt lat="45.6612612" lon="12.2388086"><ele>12.571428571428571</ele><time>2026-04-02T16:51:11.827Z</time></trkpt><trkpt lat="45.6612843" lon="12.2387042"><ele>12.428571428571427</ele><time>2026-04-02T16:51:15.991Z</time></trkpt><trkpt lat="45.6613053" lon="12.2386063"><ele>12.285714285714285</ele><time>2026-04-02T16:51:20.054Z</time></trkpt><trkpt lat="45.6613287" lon="12.2385021"><ele>12.142857142857142</ele><time>2026-04-02T16:51:24.009Z</time></trkpt><trkpt lat="45.6613539" lon="12.238417"><ele>12.0</ele><time>2026-04-02T16:51:27.005Z</time></trkpt><trkpt lat="45.6613857" lon="12.238311"><ele>11.999999999999998</ele><time>2026-04-02T16:51:30.932Z</time></trkpt><trkpt lat="45.661402" lon="12.2382153"><ele>12.0</ele><time>2026-04-02T16:51:35.065Z</time></trkpt><trkpt lat="45.6614205" lon="12.238126"><ele>12.0</ele><time>2026-04-02T16:51:38.989Z</time></trkpt><trkpt lat="45.6614551" lon="12.2380337"><ele>12.0</ele><time>2026-04-02T16:51:43.064Z</time></trkpt><trkpt lat="45.6615034" lon="12.2379615"><ele>12.0</ele><time>2026-04-02T16:51:46.909Z</time></trkpt><trkpt lat="45.6615701" lon="12.2379068"><ele>11.999999999999998</ele><time>2026-04-02T16:51:51.044Z</time></trkpt><trkpt lat="45.6616338" lon="12.2378547"><ele>12.0</ele><time>2026-04-02T16:51:55.048Z</time></trkpt><trkpt lat="45.6616864" lon="12.2377922"><ele>11.999999999999998</ele><time>2026-04-02T16:51:58.044Z</time></trkpt><trkpt lat="45.6617437" lon="12.2377444"><ele>12.0</ele><time>2026-04-02T16:52:00.992Z</time></trkpt><trkpt lat="45.6618047" lon="12.2376963"><ele>12.0</ele><time>2026-04-02T16:52:04.994Z</time></trkpt><trkpt lat="45.6618692" lon="12.2376453"><ele>12.0</ele><time>2026-04-02T16:52:10.028Z</time></trkpt><trkpt lat="45.6619373" lon="12.2376216"><ele>12.0</ele><time>2026-04-02T16:52:13.983Z</time></trkpt><trkpt lat="45.6620032" lon="12.2375705"><ele>11.999999999999998</ele><time>2026-04-02T16:52:17.929Z</time></trkpt><trkpt lat="45.6620726" lon="12.2375259"><ele>12.0</ele><time>2026-04-02T16:52:22.034Z</time></trkpt><trkpt lat="45.6621216" lon="12.2374587"><ele>12.428571428571427</ele><time>2026-04-02T16:52:25.967Z</time></trkpt><trkpt lat="45.6621855" lon="12.2374075"><ele>12.857142857142858</ele><time>2026-04-02T16:52:29.914Z</time></trkpt><trkpt lat="45.6622453" lon="12.2373768"><ele>13.285714285714285</ele><time>2026-04-02T16:52:33.009Z</time></trkpt><trkpt lat="45.662308" lon="12.2373187"><ele>13.714285714285714</ele><time>2026-04-02T16:52:36.992Z</time></trkpt><trkpt lat="45.6623629" lon="12.2372412"><ele>14.142857142857142</ele><time>2026-04-02T16:52:42.025Z</time></trkpt><trkpt lat="45.6624133" lon="12.2371837"><ele>14.571428571428571</ele><time>2026-04-02T16:52:45.98Z</time></trkpt><trkpt lat="45.6624692" lon="12.2371379"><ele>15.0</ele><time>2026-04-02T16:52:49.008Z</time></trkpt><trkpt lat="45.6625223" lon="12.2370885"><ele>15.285714285714286</ele><time>2026-04-02T16:52:52.074Z</time></trkpt><trkpt lat="45.6625883" lon="12.2370219"><ele>15.57142857142857</ele><time>2026-04-02T16:52:56.046Z</time></trkpt><trkpt lat="45.6626539" lon="12.23701"><ele>15.857142857142856</ele><time>2026-04-02T16:53:00.001Z</time></trkpt><trkpt lat="45.6627223" lon="12.2369511"><ele>16.142857142857142</ele><time>2026-04-02T16:53:03.958Z</time></trkpt><trkpt lat="45.6627852" lon="12.2368954"><ele>16.428571428571427</ele><time>2026-04-02T16:53:08.003Z</time></trkpt><trkpt lat="45.6628371" lon="12.2368332"><ele>16.71428571428571</ele><time>2026-04-02T16:53:11.986Z</time></trkpt><trkpt lat="45.6629068" lon="12.2367789"><ele>17.0</ele><time>2026-04-02T16:53:17.019Z</time></trkpt><trkpt lat="45.6629688" lon="12.2367326"><ele>17.0</ele><time>2026-04-02T16:53:20.974Z</time></trkpt><trkpt lat="45.663026" lon="12.2366756"><ele>17.0</ele><time>2026-04-02T16:53:24.94Z</time></trkpt><trkpt lat="45.6630919" lon="12.2366079"><ele>17.0</ele><time>2026-04-02T16:53:29.036Z</time></trkpt><trkpt lat="45.6631479" lon="12.2365567"><ele>17.0</ele><time>2026-04-02T16:53:32.101Z</time></trkpt><trkpt lat="45.6632164" lon="12.236495"><ele>17.0</ele><time>2026-04-02T16:53:35.954Z</time></trkpt><trkpt lat="45.6632898" lon="12.236444"><ele>17.0</ele><time>2026-04-02T16:53:40.028Z</time></trkpt><trkpt lat="45.6633572" lon="12.2364125"><ele>16.857142857142854</ele><time>2026-04-02T16:53:42.857Z</time></trkpt><trkpt lat="45.6634265" lon="12.2363584"><ele>16.714285714285715</ele><time>2026-04-02T16:53:47.002Z</time></trkpt><trkpt lat="45.663473" lon="12.2362841"><ele>16.57142857142857</ele><time>2026-04-02T16:53:52.013Z</time></trkpt><trkpt lat="45.6635073" lon="12.2361954"><ele>16.428571428571427</ele><time>2026-04-02T16:53:57.046Z</time></trkpt><trkpt lat="45.6635096" lon="12.2361"><ele>16.285714285714285</ele><time>2026-04-02T16:54:18.919Z</time></trkpt><trkpt lat="45.6635338" lon="12.2360103"><ele>16.142857142857142</ele><time>2026-04-02T16:54:21.875Z</time></trkpt><trkpt lat="45.6635415" lon="12.2359092"><ele>16.0</ele><time>2026-04-02T16:54:24.921Z</time></trkpt><trkpt lat="45.6635364" lon="12.2357947"><ele>16.0</ele><time>2026-04-02T16:54:29.036Z</time></trkpt><trkpt lat="45.6635345" lon="12.2356875"><ele>15.999999999999998</ele><time>2026-04-02T16:54:32.998Z</time></trkpt><trkpt lat="45.6635181" lon="12.2355742"><ele>16.0</ele><time>2026-04-02T16:54:36.953Z</time></trkpt><trkpt lat="45.663501" lon="12.2354803"><ele>16.0</ele><time>2026-04-02T16:54:41.028Z</time></trkpt><trkpt lat="45.6634703" lon="12.2353719"><ele>15.999999999999998</ele><time>2026-04-02T16:54:44.995Z</time></trkpt><trkpt lat="45.6634426" lon="12.2352734"><ele>16.0</ele><time>2026-04-02T16:54:49.079Z</time></trkpt><trkpt lat="45.6634368" lon="12.2351805"><ele>16.0</ele><time>2026-04-02T16:54:53.012Z</time></trkpt><trkpt lat="45.6634271" lon="12.2350727"><ele>16.142857142857142</ele><time>2026-04-02T16:54:56.966Z</time></trkpt><trkpt lat="45.663418" lon="12.2349622"><ele>16.285714285714285</ele><time>2026-04-02T16:55:01.04Z</time></trkpt><trkpt lat="45.6633933" lon="12.2348581"><ele>16.428571428571427</ele><time>2026-04-02T16:55:04.996Z</time></trkpt><trkpt lat="45.6633737" lon="12.2347522"><ele>16.57142857142857</ele><time>2026-04-02T16:55:08.963Z</time></trkpt><trkpt lat="45.6633545" lon="12.2346499"><ele>16.714285714285715</ele><time>2026-04-02T16:55:13.057Z</time></trkpt><trkpt lat="45.6633713" lon="12.2345484"><ele>16.857142857142854</ele><time>2026-04-02T16:55:16.98Z</time></trkpt><trkpt lat="45.6633809" lon="12.2344587"><ele>17.0</ele><time>2026-04-02T16:55:19.976Z</time></trkpt><trkpt lat="45.6633672" lon="12.2343462"><ele>16.999999999999996</ele><time>2026-04-02T16:55:24.05Z</time></trkpt><trkpt lat="45.663336" lon="12.2342466"><ele>17.0</ele><time>2026-04-02T16:55:28.005Z</time></trkpt><trkpt lat="45.6633092" lon="12.2341445"><ele>17.0</ele><time>2026-04-02T16:55:31.96Z</time></trkpt><trkpt lat="45.6632964" lon="12.2340531"><ele>17.0</ele><time>2026-04-02T16:55:35.489Z</time></trkpt><trkpt lat="45.6632955" lon="12.2339615"><ele>17.0</ele><time>2026-04-02T16:55:39.002Z</time></trkpt><trkpt lat="45.663302" lon="12.2338637"><ele>16.999999999999996</ele><time>2026-04-02T16:55:43.058Z</time></trkpt><trkpt lat="45.6632977" lon="12.2337507"><ele>17.0</ele><time>2026-04-02T16:55:48.019Z</time></trkpt><trkpt lat="45.6632728" lon="12.2336567"><ele>16.999999999999996</ele><time>2026-04-02T16:55:51.973Z</time></trkpt><trkpt lat="45.6632501" lon="12.2335658"><ele>17.0</ele><time>2026-04-02T16:55:55.861Z</time></trkpt><trkpt lat="45.6632209" lon="12.2334644"><ele>17.0</ele><time>2026-04-02T16:56:00.054Z</time></trkpt><trkpt lat="45.6632132" lon="12.2333652"><ele>17.0</ele><time>2026-04-02T16:56:04.06Z</time></trkpt><trkpt lat="45.6631966" lon="12.2332645"><ele>17.0</ele><time>2026-04-02T16:56:08.032Z</time></trkpt><trkpt lat="45.6631885" lon="12.2331677"><ele>16.999999999999996</ele><time>2026-04-02T16:56:11.028Z</time></trkpt><trkpt lat="45.6631764" lon="12.233079"><ele>17.0</ele><time>2026-04-02T16:56:14.024Z</time></trkpt><trkpt lat="45.6631854" lon="12.2329759"><ele>17.285714285714285</ele><time>2026-04-02T16:56:16.862Z</time></trkpt><trkpt lat="45.6631993" lon="12.2328843"><ele>17.57142857142857</ele><time>2026-04-02T16:56:20.018Z</time></trkpt><trkpt lat="45.663201" lon="12.2327859"><ele>17.857142857142854</ele><time>2026-04-02T16:56:23.971Z</time></trkpt><trkpt lat="45.6631991" lon="12.232695"><ele>18.142857142857142</ele><time>2026-04-02T16:56:28.046Z</time></trkpt><trkpt lat="45.6631674" lon="12.2326059"><ele>18.42857142857143</ele><time>2026-04-02T16:56:32.959Z</time></trkpt><trkpt lat="45.6632029" lon="12.2325169"><ele>18.71428571428571</ele><time>2026-04-02T16:56:36.914Z</time></trkpt><trkpt lat="45.6631818" lon="12.2324163"><ele>19.0</ele><time>2026-04-02T16:56:40.77Z</time></trkpt><trkpt lat="45.6631745" lon="12.2323145"><ele>18.57142857142857</ele><time>2026-04-02T16:56:44.933Z</time></trkpt><trkpt lat="45.6632046" lon="12.2322224"><ele>18.142857142857146</ele><time>2026-04-02T16:56:47.929Z</time></trkpt><trkpt lat="45.6631832" lon="12.2321152"><ele>17.714285714285715</ele><time>2026-04-02T16:56:51.807Z</time></trkpt><trkpt lat="45.6631698" lon="12.2320243"><ele>17.285714285714285</ele><time>2026-04-02T16:56:55Z</time></trkpt><trkpt lat="45.6631823" lon="12.2319058"><ele>16.857142857142854</ele><time>2026-04-02T16:56:59.075Z</time></trkpt><trkpt lat="45.6631826" lon="12.2318116"><ele>16.428571428571427</ele><time>2026-04-02T16:57:02.071Z</time></trkpt><trkpt lat="45.6631662" lon="12.2317009"><ele>16.0</ele><time>2026-04-02T16:57:06.026Z</time></trkpt><trkpt lat="45.6631705" lon="12.2315924"><ele>16.0</ele><time>2026-04-02T16:57:09.98Z</time></trkpt><trkpt lat="45.6632221" lon="12.2315106"><ele>15.999999999999998</ele><time>2026-04-02T16:57:14.055Z</time></trkpt><trkpt lat="45.663286" lon="12.2314914"><ele>16.0</ele><time>2026-04-02T16:57:16.889Z</time></trkpt><trkpt lat="45.66336" lon="12.2314674"><ele>16.0</ele><time>2026-04-02T16:57:19.905Z</time></trkpt><trkpt lat="45.66343" lon="12.2314415"><ele>15.999999999999998</ele><time>2026-04-02T16:57:22.867Z</time></trkpt><trkpt lat="45.6634943" lon="12.2314302"><ele>16.0</ele><time>2026-04-02T16:57:26.039Z</time></trkpt><trkpt lat="45.6635577" lon="12.2313988"><ele>16.0</ele><time>2026-04-02T16:57:29.994Z</time></trkpt><trkpt lat="45.6636245" lon="12.2313507"><ele>16.0</ele><time>2026-04-02T16:57:34.069Z</time></trkpt><trkpt lat="45.6636949" lon="12.2313538"><ele>15.999999999999998</ele><time>2026-04-02T16:57:38.024Z</time></trkpt><trkpt lat="45.663769" lon="12.2313269"><ele>16.0</ele><time>2026-04-02T16:57:41.978Z</time></trkpt><trkpt lat="45.663838" lon="12.2312998"><ele>16.0</ele><time>2026-04-02T16:57:47.012Z</time></trkpt><trkpt lat="45.6639001" lon="12.2312522"><ele>15.999999999999998</ele><time>2026-04-02T16:57:50.967Z</time></trkpt><trkpt lat="45.6639746" lon="12.2312268"><ele>16.0</ele><time>2026-04-02T16:57:53.963Z</time></trkpt><trkpt lat="45.6640502" lon="12.23121"><ele>16.0</ele><time>2026-04-02T16:57:56.959Z</time></trkpt><trkpt lat="45.6641262" lon="12.231195"><ele>16.0</ele><time>2026-04-02T16:58:01.033Z</time></trkpt><trkpt lat="45.6641888" lon="12.2311778"><ele>15.999999999999998</ele><time>2026-04-02T16:58:04.987Z</time></trkpt><trkpt lat="45.6642632" lon="12.2311567"><ele>16.0</ele><time>2026-04-02T16:58:09.063Z</time></trkpt><trkpt lat="45.6643376" lon="12.2311357"><ele>16.0</ele><time>2026-04-02T16:58:13.018Z</time></trkpt><trkpt lat="45.6644199" lon="12.2311152"><ele>15.999999999999998</ele><time>2026-04-02T16:58:16.972Z</time></trkpt><trkpt lat="45.6644932" lon="12.2310838"><ele>16.0</ele><time>2026-04-02T16:58:21.047Z</time></trkpt><trkpt lat="45.6645629" lon="12.2310561"><ele>16.0</ele><time>2026-04-02T16:58:25.002Z</time></trkpt><trkpt lat="45.6646309" lon="12.231025"><ele>16.857142857142858</ele><time>2026-04-02T16:58:28.957Z</time></trkpt><trkpt lat="45.6647047" lon="12.2309914"><ele>17.71428571428571</ele><time>2026-04-02T16:58:32.889Z</time></trkpt><trkpt lat="45.6647816" lon="12.2309683"><ele>18.57142857142857</ele><time>2026-04-02T16:58:36.978Z</time></trkpt><trkpt lat="45.6648457" lon="12.2309439"><ele>19.428571428571427</ele><time>2026-04-02T16:58:39.964Z</time></trkpt><trkpt lat="45.6649146" lon="12.2309168"><ele>20.285714285714285</ele><time>2026-04-02T16:58:43.02Z</time></trkpt><trkpt lat="45.6649857" lon="12.2308915"><ele>21.142857142857142</ele><time>2026-04-02T16:58:47.053Z</time></trkpt><trkpt lat="45.6650519" lon="12.2308709"><ele>22.0</ele><time>2026-04-02T16:58:51.966Z</time></trkpt><trkpt lat="45.6651137" lon="12.23083"><ele>22.0</ele><time>2026-04-02T16:58:56.902Z</time></trkpt><trkpt lat="45.6651797" lon="12.2307944"><ele>22.0</ele><time>2026-04-02T16:59:02.033Z</time></trkpt><trkpt lat="45.6652621" lon="12.2308009"><ele>22.0</ele><time>2026-04-02T16:59:05.988Z</time></trkpt><trkpt lat="45.6653337" lon="12.2307845"><ele>22.0</ele><time>2026-04-02T16:59:08.984Z</time></trkpt><trkpt lat="45.6654113" lon="12.230773"><ele>22.0</ele><time>2026-04-02T16:59:13.061Z</time></trkpt><trkpt lat="45.6654804" lon="12.2307112"><ele>22.0</ele><time>2026-04-02T16:59:17.013Z</time></trkpt><trkpt lat="45.6655339" lon="12.2306377"><ele>21.142857142857142</ele><time>2026-04-02T16:59:20.009Z</time></trkpt><trkpt lat="45.6656036" lon="12.2305974"><ele>20.285714285714285</ele><time>2026-04-02T16:59:23.964Z</time></trkpt><trkpt lat="45.6656735" lon="12.2305637"><ele>19.428571428571427</ele><time>2026-04-02T16:59:27.919Z</time></trkpt><trkpt lat="45.665725" lon="12.2305072"><ele>18.57142857142857</ele><time>2026-04-02T16:59:31.993Z</time></trkpt><trkpt lat="45.6657947" lon="12.2304597"><ele>17.71428571428571</ele><time>2026-04-02T16:59:36.907Z</time></trkpt><trkpt lat="45.6658676" lon="12.2304192"><ele>16.857142857142858</ele><time>2026-04-02T16:59:41.024Z</time></trkpt><trkpt lat="45.6659345" lon="12.2303995"><ele>16.0</ele><time>2026-04-02T16:59:45.056Z</time></trkpt><trkpt lat="45.6660026" lon="12.2303924"><ele>16.0</ele><time>2026-04-02T16:59:48.052Z</time></trkpt><trkpt lat="45.6660795" lon="12.2303566"><ele>15.999999999999998</ele><time>2026-04-02T16:59:52.007Z</time></trkpt><trkpt lat="45.6661421" lon="12.2303171"><ele>16.0</ele><time>2026-04-02T16:59:56.044Z</time></trkpt><trkpt lat="45.6662153" lon="12.2302757"><ele>16.0</ele><time>2026-04-02T17:00:00.995Z</time></trkpt><trkpt lat="45.666296" lon="12.2302561"><ele>15.999999999999998</ele><time>2026-04-02T17:00:04.962Z</time></trkpt><trkpt lat="45.6663676" lon="12.2302472"><ele>16.0</ele><time>2026-04-02T17:00:09.024Z</time></trkpt><trkpt lat="45.6664221" lon="12.2301981"><ele>16.0</ele><time>2026-04-02T17:00:15.975Z</time></trkpt><trkpt lat="45.666415" lon="12.2301046"><ele>16.166666666666664</ele><time>2026-04-02T17:00:21.967Z</time></trkpt><trkpt lat="45.6664057" lon="12.2300123"><ele>16.333333333333332</ele><time>2026-04-02T17:00:25.985Z</time></trkpt><trkpt lat="45.6663885" lon="12.2298993"><ele>16.5</ele><time>2026-04-02T17:00:29.996Z</time></trkpt><trkpt lat="45.6663735" lon="12.2297811"><ele>16.666666666666668</ele><time>2026-04-02T17:00:34.341Z</time></trkpt><trkpt lat="45.6663292" lon="12.2297018"><ele>16.833333333333336</ele><time>2026-04-02T17:00:38.457Z</time></trkpt><trkpt lat="45.6662933" lon="12.2296008"><ele>17.0</ele><time>2026-04-02T17:00:43.661Z</time></trkpt><trkpt lat="45.6662719" lon="12.2294974"><ele>17.142857142857142</ele><time>2026-04-02T17:00:47.795Z</time></trkpt><trkpt lat="45.6662639" lon="12.2294035"><ele>17.285714285714285</ele><time>2026-04-02T17:00:50.98Z</time></trkpt><trkpt lat="45.6662675" lon="12.229295"><ele>17.42857142857143</ele><time>2026-04-02T17:00:55.043Z</time></trkpt><trkpt lat="45.6662731" lon="12.2291995"><ele>17.57142857142857</ele><time>2026-04-02T17:00:58.038Z</time></trkpt><trkpt lat="45.6662716" lon="12.2291077"><ele>17.714285714285715</ele><time>2026-04-02T17:01:00.899Z</time></trkpt><trkpt lat="45.6662688" lon="12.2289981"><ele>17.857142857142858</ele><time>2026-04-02T17:01:05.082Z</time></trkpt><trkpt lat="45.6662683" lon="12.2289022"><ele>18.0</ele><time>2026-04-02T17:01:09.357Z</time></trkpt><trkpt lat="45.6662528" lon="12.2287957"><ele>18.142857142857146</ele><time>2026-04-02T17:01:15.056Z</time></trkpt><trkpt lat="45.6662458" lon="12.2286912"><ele>18.285714285714285</ele><time>2026-04-02T17:01:17.894Z</time></trkpt><trkpt lat="45.6662355" lon="12.2285936"><ele>18.42857142857143</ele><time>2026-04-02T17:01:22.007Z</time></trkpt><trkpt lat="45.6662205" lon="12.2284946"><ele>18.571428571428573</ele><time>2026-04-02T17:01:25.945Z</time></trkpt><trkpt lat="45.6661991" lon="12.2283874"><ele>18.714285714285715</ele><time>2026-04-02T17:01:30.037Z</time></trkpt><trkpt lat="45.6661815" lon="12.2282826"><ele>18.857142857142858</ele><time>2026-04-02T17:01:33.991Z</time></trkpt><trkpt lat="45.6661606" lon="12.228172"><ele>19.0</ele><time>2026-04-02T17:01:39.025Z</time></trkpt><trkpt lat="45.6661722" lon="12.2280705"><ele>18.71428571428571</ele><time>2026-04-02T17:01:42.979Z</time></trkpt><trkpt lat="45.6661621" lon="12.2279663"><ele>18.42857142857143</ele><time>2026-04-02T17:01:46.897Z</time></trkpt><trkpt lat="45.6661655" lon="12.2278638"><ele>18.142857142857142</ele><time>2026-04-02T17:01:51.008Z</time></trkpt><trkpt lat="45.6661466" lon="12.2277568"><ele>17.857142857142854</ele><time>2026-04-02T17:01:54.963Z</time></trkpt><trkpt lat="45.6661493" lon="12.2276666"><ele>17.57142857142857</ele><time>2026-04-02T17:01:58.94Z</time></trkpt><trkpt lat="45.6661397" lon="12.2275697"><ele>17.285714285714285</ele><time>2026-04-02T17:02:02.993Z</time></trkpt><trkpt lat="45.666156" lon="12.2274581"><ele>17.0</ele><time>2026-04-02T17:02:07.999Z</time></trkpt><trkpt lat="45.6661188" lon="12.2273534"><ele>16.857142857142854</ele><time>2026-04-02T17:02:11.981Z</time></trkpt><trkpt lat="45.6660712" lon="12.2272824"><ele>16.714285714285715</ele><time>2026-04-02T17:02:14.976Z</time></trkpt><trkpt lat="45.6660216" lon="12.2272193"><ele>16.57142857142857</ele><time>2026-04-02T17:02:19.051Z</time></trkpt><trkpt lat="45.6660292" lon="12.2271172"><ele>16.428571428571427</ele><time>2026-04-02T17:02:23.006Z</time></trkpt><trkpt lat="45.6659846" lon="12.2270443"><ele>16.285714285714285</ele><time>2026-04-02T17:02:26.002Z</time></trkpt><trkpt lat="45.6659236" lon="12.2269793"><ele>16.142857142857142</ele><time>2026-04-02T17:02:29.06Z</time></trkpt><trkpt lat="45.6658875" lon="12.2268957"><ele>16.0</ele><time>2026-04-02T17:02:33.864Z</time></trkpt><trkpt lat="45.6659456" lon="12.2268024"><ele>15.999999999999998</ele><time>2026-04-02T17:02:37.998Z</time></trkpt><trkpt lat="45.6660084" lon="12.2267368"><ele>16.0</ele><time>2026-04-02T17:02:42.061Z</time></trkpt><trkpt lat="45.6660508" lon="12.2266654"><ele>16.0</ele><time>2026-04-02T17:02:45.878Z</time></trkpt><trkpt lat="45.6660779" lon="12.2265661"><ele>16.0</ele><time>2026-04-02T17:02:50.002Z</time></trkpt><trkpt lat="45.6660537" lon="12.2264513"><ele>15.999999999999998</ele><time>2026-04-02T17:02:55.003Z</time></trkpt><trkpt lat="45.6660213" lon="12.2263671"><ele>16.0</ele><time>2026-04-02T17:02:58.921Z</time></trkpt><trkpt lat="45.6660042" lon="12.2262503"><ele>16.0</ele><time>2026-04-02T17:03:02.056Z</time></trkpt><trkpt lat="45.6659893" lon="12.2261496"><ele>16.0</ele><time>2026-04-02T17:03:06.029Z</time></trkpt><trkpt lat="45.6659743" lon="12.2260456"><ele>16.0</ele><time>2026-04-02T17:03:09.983Z</time></trkpt><trkpt lat="45.66597" lon="12.2259441"><ele>16.0</ele><time>2026-04-02T17:03:15.017Z</time></trkpt><trkpt lat="45.6659574" lon="12.2258502"><ele>16.0</ele><time>2026-04-02T17:03:18.971Z</time></trkpt></trkseg></trk></gpx>